﻿<?xml version="1.0" encoding="utf-8"?><gpx creator="Garmin Desktop App" version="1.1" xsi:schemaLocation="http://www.topografix.com/GPX/1/1 http://www.topografix.com/GPX/1/1/gpx.xsd http://www.garmin.com/xmlschemas/WaypointExtension/v1 http://www8.garmin.com/xmlschemas/WaypointExtensionv1.xsd http://www.garmin.com/xmlschemas/TrackPointExtension/v1 http://www.garmin.com/xmlschemas/TrackPointExtensionv1.xsd http://www.garmin.com/xmlschemas/GpxExtensions/v3 http://www8.garmin.com/xmlschemas/GpxExtensionsv3.xsd http://www.garmin.com/xmlschemas/ActivityExtension/v1 http://www8.garmin.com/xmlschemas/ActivityExtensionv1.xsd http://www.garmin.com/xmlschemas/AdventuresExtensions/v1 http://www8.garmin.com/xmlschemas/AdventuresExtensionv1.xsd http://www.garmin.com/xmlschemas/PressureExtension/v1 http://www.garmin.com/xmlschemas/PressureExtensionv1.xsd http://www.garmin.com/xmlschemas/TripExtensions/v1 http://www.garmin.com/xmlschemas/TripExtensionsv1.xsd http://www.garmin.com/xmlschemas/TripMetaDataExtensions/v1 http://www.garmin.com/xmlschemas/TripMetaDataExtensionsv1.xsd http://www.garmin.com/xmlschemas/ViaPointTransportationModeExtensions/v1 http://www.garmin.com/xmlschemas/ViaPointTransportationModeExtensionsv1.xsd http://www.garmin.com/xmlschemas/CreationTimeExtension/v1 http://www.garmin.com/xmlschemas/CreationTimeExtensionsv1.xsd http://www.garmin.com/xmlschemas/AccelerationExtension/v1 http://www.garmin.com/xmlschemas/AccelerationExtensionv1.xsd http://www.garmin.com/xmlschemas/PowerExtension/v1 http://www.garmin.com/xmlschemas/PowerExtensionv1.xsd http://www.garmin.com/xmlschemas/VideoExtension/v1 http://www.garmin.com/xmlschemas/VideoExtensionv1.xsd" xmlns="http://www.topografix.com/GPX/1/1" xmlns:xsi="http://www.w3.org/2001/XMLSchema-instance" xmlns:wptx1="http://www.garmin.com/xmlschemas/WaypointExtension/v1" xmlns:gpxtrx="http://www.garmin.com/xmlschemas/GpxExtensions/v3" xmlns:gpxtpx="http://www.garmin.com/xmlschemas/TrackPointExtension/v1" xmlns:gpxx="http://www.garmin.com/xmlschemas/GpxExtensions/v3" xmlns:trp="http://www.garmin.com/xmlschemas/TripExtensions/v1" xmlns:adv="http://www.garmin.com/xmlschemas/AdventuresExtensions/v1" xmlns:prs="http://www.garmin.com/xmlschemas/PressureExtension/v1" xmlns:tmd="http://www.garmin.com/xmlschemas/TripMetaDataExtensions/v1" xmlns:vptm="http://www.garmin.com/xmlschemas/ViaPointTransportationModeExtensions/v1" xmlns:ctx="http://www.garmin.com/xmlschemas/CreationTimeExtension/v1" xmlns:gpxacc="http://www.garmin.com/xmlschemas/AccelerationExtension/v1" xmlns:gpxpx="http://www.garmin.com/xmlschemas/PowerExtension/v1" xmlns:vidx1="http://www.garmin.com/xmlschemas/VideoExtension/v1">

  <metadata>
    <link href="http://www.garmin.com">
      <text>Garmin International</text>
    </link>
    <time>2026-04-06T16:34:12Z</time>
    <bounds maxlat="50.48272498883307" maxlon="7.637654040008783" minlat="50.425559990108013" minlon="7.501246025785804" />
  </metadata>

  <trk>
    <name>Oelim_E03_E05_RD_35K</name>
    <extensions>
      <gpxx:TrackExtension>
        <gpxx:DisplayColor>DarkGray</gpxx:DisplayColor>
      </gpxx:TrackExtension>
    </extensions>
    <trkseg>
      <trkpt lat="50.437430022284389" lon="7.637568041682243">
        <ele>300.31404700000002</ele>
        <time>2026-04-06T07:33:55Z</time>
      </trkpt>
      <trkpt lat="50.437433961778879" lon="7.637568041682243">
        <ele>300.31404700000002</ele>
        <time>2026-04-06T07:34:01Z</time>
      </trkpt>
      <trkpt lat="50.43743597343564" lon="7.637556977570057">
        <ele>300.31404700000002</ele>
        <time>2026-04-06T07:34:14Z</time>
      </trkpt>
      <trkpt lat="50.437404960393906" lon="7.637464022263885">
        <ele>300.31404700000002</ele>
        <time>2026-04-06T07:34:17Z</time>
      </trkpt>
      <trkpt lat="50.437468998134136" lon="7.636826997622848">
        <ele>300.31404700000002</ele>
        <time>2026-04-06T07:34:42Z</time>
      </trkpt>
      <trkpt lat="50.43743597343564" lon="7.636537989601493">
        <ele>300.31404700000002</ele>
        <time>2026-04-06T07:35:47Z</time>
      </trkpt>
      <trkpt lat="50.437462041154504" lon="7.636494990438223">
        <ele>300.31404700000002</ele>
        <time>2026-04-06T07:36:05Z</time>
      </trkpt>
      <trkpt lat="50.437523983418941" lon="7.635942036285996">
        <ele>299.35033499999997</ele>
        <time>2026-04-06T07:36:18Z</time>
      </trkpt>
      <trkpt lat="50.437609981745481" lon="7.634539995342493">
        <ele>296.52957400000003</ele>
        <time>2026-04-06T07:36:43Z</time>
      </trkpt>
      <trkpt lat="50.437680976465344" lon="7.634047977626324">
        <ele>295.522876</ele>
        <time>2026-04-06T07:36:54Z</time>
      </trkpt>
      <trkpt lat="50.437586009502411" lon="7.633624020963907">
        <ele>294.62993599999999</ele>
        <time>2026-04-06T07:37:18Z</time>
      </trkpt>
      <trkpt lat="50.437538987025619" lon="7.633446995168924">
        <ele>294.42663800000003</ele>
        <time>2026-04-06T07:37:44Z</time>
      </trkpt>
      <trkpt lat="50.437460029497743" lon="7.633220013231039">
        <ele>294.15284000000003</ele>
        <time>2026-04-06T07:37:48Z</time>
      </trkpt>
      <trkpt lat="50.437103966251016" lon="7.631919980049133">
        <ele>292.646275</ele>
        <time>2026-04-06T07:38:12Z</time>
      </trkpt>
      <trkpt lat="50.437072031199932" lon="7.631149012595415">
        <ele>291.82600200000002</ele>
        <time>2026-04-06T07:38:27Z</time>
      </trkpt>
      <trkpt lat="50.437044035643339" lon="7.630755985155702">
        <ele>291.43688300000002</ele>
        <time>2026-04-06T07:38:36Z</time>
      </trkpt>
      <trkpt lat="50.437044035643339" lon="7.630112003535032">
        <ele>290.817407</ele>
        <time>2026-04-06T07:38:47Z</time>
      </trkpt>
      <trkpt lat="50.437006987631321" lon="7.629024032503367">
        <ele>289.78443600000003</ele>
        <time>2026-04-06T07:39:05Z</time>
      </trkpt>
      <trkpt lat="50.437012016773224" lon="7.628736030310392">
        <ele>289.50664499999999</ele>
        <time>2026-04-06T07:39:10Z</time>
      </trkpt>
      <trkpt lat="50.437036994844675" lon="7.6274439599365">
        <ele>288.56357600000001</ele>
        <time>2026-04-06T07:39:33Z</time>
      </trkpt>
      <trkpt lat="50.437015034258366" lon="7.626882959157229">
        <ele>288.23328700000002</ele>
        <time>2026-04-06T07:39:41Z</time>
      </trkpt>
      <trkpt lat="50.437021991237998" lon="7.626615995541215">
        <ele>288.07793500000002</ele>
        <time>2026-04-06T07:39:45Z</time>
      </trkpt>
      <trkpt lat="50.437046969309449" lon="7.624885970726609">
        <ele>287.97121800000002</ele>
        <time>2026-04-06T07:40:21Z</time>
      </trkpt>
      <trkpt lat="50.437071025371552" lon="7.624571984633803">
        <ele>288.33127500000001</ele>
        <time>2026-04-06T07:40:29Z</time>
      </trkpt>
      <trkpt lat="50.43715400621295" lon="7.624094970524311">
        <ele>288.88663500000001</ele>
        <time>2026-04-06T07:40:42Z</time>
      </trkpt>
      <trkpt lat="50.437092985957861" lon="7.623098026961088">
        <ele>290.03629899999999</ele>
        <time>2026-04-06T07:41:11Z</time>
      </trkpt>
      <trkpt lat="50.437084017321467" lon="7.622521016746759">
        <ele>290.49630000000002</ele>
        <time>2026-04-06T07:41:25Z</time>
      </trkpt>
      <trkpt lat="50.437072031199932" lon="7.622366035357118">
        <ele>290.45764500000001</ele>
        <time>2026-04-06T07:41:28Z</time>
      </trkpt>
      <trkpt lat="50.437120981514454" lon="7.620697030797601">
        <ele>290.04073299999999</ele>
        <time>2026-04-06T07:42:04Z</time>
      </trkpt>
      <trkpt lat="50.437083011493087" lon="7.620281958952546">
        <ele>289.93667599999998</ele>
        <time>2026-04-06T07:42:16Z</time>
      </trkpt>
      <trkpt lat="50.43709198012948" lon="7.620236026123166">
        <ele>289.92183199999999</ele>
        <time>2026-04-06T07:42:59Z</time>
      </trkpt>
      <trkpt lat="50.437130033969879" lon="7.620162013918161">
        <ele>289.89068600000002</ele>
        <time>2026-04-06T07:44:24Z</time>
      </trkpt>
      <trkpt lat="50.437105977907777" lon="7.620120020583272">
        <ele>289.87384800000001</ele>
        <time>2026-04-06T07:46:18Z</time>
      </trkpt>
      <trkpt lat="50.437097009271383" lon="7.620066041126847">
        <ele>289.85986500000001</ele>
        <time>2026-04-06T07:46:20Z</time>
      </trkpt>
      <trkpt lat="50.437158029526472" lon="7.619413007050753">
        <ele>289.92510700000003</ele>
        <time>2026-04-06T07:46:37Z</time>
      </trkpt>
      <trkpt lat="50.437433961778879" lon="7.618126971647143">
        <ele>290.13543900000002</ele>
        <time>2026-04-06T07:47:10Z</time>
      </trkpt>
      <trkpt lat="50.437815003097057" lon="7.617209991440177">
        <ele>289.80767600000001</ele>
        <time>2026-04-06T07:47:30Z</time>
      </trkpt>
      <trkpt lat="50.438396958634257" lon="7.615957986563444">
        <ele>286.78170399999999</ele>
        <time>2026-04-06T07:47:53Z</time>
      </trkpt>
      <trkpt lat="50.438494021072984" lon="7.615750031545758">
        <ele>286.27874300000002</ele>
        <time>2026-04-06T07:47:58Z</time>
      </trkpt>
      <trkpt lat="50.438609020784497" lon="7.615606030449271">
        <ele>285.82819999999998</ele>
        <time>2026-04-06T07:48:01Z</time>
      </trkpt>
      <trkpt lat="50.438709016889334" lon="7.615449959412217">
        <ele>285.39632599999999</ele>
        <time>2026-04-06T07:48:04Z</time>
      </trkpt>
      <trkpt lat="50.438948990777135" lon="7.615103032439947">
        <ele>284.56305900000001</ele>
        <time>2026-04-06T07:48:10Z</time>
      </trkpt>
      <trkpt lat="50.439284015446901" lon="7.614539014175534">
        <ele>283.75579699999997</ele>
        <time>2026-04-06T07:48:19Z</time>
      </trkpt>
      <trkpt lat="50.43940999545157" lon="7.614244977012277">
        <ele>283.38474500000001</ele>
        <time>2026-04-06T07:48:23Z</time>
      </trkpt>
      <trkpt lat="50.439513009041548" lon="7.614005003124476">
        <ele>283.081909</ele>
        <time>2026-04-06T07:48:26Z</time>
      </trkpt>
      <trkpt lat="50.439696991816163" lon="7.61308902874589">
        <ele>282.06081599999999</ele>
        <time>2026-04-06T07:48:40Z</time>
      </trkpt>
      <trkpt lat="50.439734039828181" lon="7.612873027101159">
        <ele>281.82594999999998</ele>
        <time>2026-04-06T07:48:50Z</time>
      </trkpt>
      <trkpt lat="50.439389040693641" lon="7.611975995823741">
        <ele>280.70966600000003</ele>
        <time>2026-04-06T07:49:12Z</time>
      </trkpt>
      <trkpt lat="50.439177984371781" lon="7.611581962555647">
        <ele>280.170278</ele>
        <time>2026-04-06T07:49:21Z</time>
      </trkpt>
      <trkpt lat="50.43874204158783" lon="7.610019994899631">
        <ele>277.71772099999998</ele>
        <time>2026-04-06T07:49:39Z</time>
      </trkpt>
      <trkpt lat="50.4386589769274" lon="7.609200999140739">
        <ele>275.68405200000001</ele>
        <time>2026-04-06T07:49:46Z</time>
      </trkpt>
      <trkpt lat="50.438620001077652" lon="7.608678974211216">
        <ele>274.39462900000001</ele>
        <time>2026-04-06T07:49:52Z</time>
      </trkpt>
      <trkpt lat="50.438598040491343" lon="7.608465990051627">
        <ele>273.86548099999999</ele>
        <time>2026-04-06T07:49:55Z</time>
      </trkpt>
      <trkpt lat="50.438544983044267" lon="7.60799702256918">
        <ele>272.69696299999998</ele>
        <time>2026-04-06T07:50:01Z</time>
      </trkpt>
      <trkpt lat="50.43852997943759" lon="7.607829971238971">
        <ele>272.283387</ele>
        <time>2026-04-06T07:50:03Z</time>
      </trkpt>
      <trkpt lat="50.438437024131417" lon="7.607416994869709">
        <ele>271.31125100000003</ele>
        <time>2026-04-06T07:50:08Z</time>
      </trkpt>
      <trkpt lat="50.438162013888359" lon="7.606708975508809">
        <ele>269.57406500000002</ele>
        <time>2026-04-06T07:50:17Z</time>
      </trkpt>
      <trkpt lat="50.438004015013576" lon="7.606332041323185">
        <ele>268.629209</ele>
        <time>2026-04-06T07:50:22Z</time>
      </trkpt>
      <trkpt lat="50.437730010598898" lon="7.60556903667748">
        <ele>266.79511100000002</ele>
        <time>2026-04-06T07:50:32Z</time>
      </trkpt>
      <trkpt lat="50.437709977850318" lon="7.605489995330572">
        <ele>266.61712399999999</ele>
        <time>2026-04-06T07:50:33Z</time>
      </trkpt>
      <trkpt lat="50.437609981745481" lon="7.605009963735938">
        <ele>265.12598600000001</ele>
        <time>2026-04-06T07:50:41Z</time>
      </trkpt>
      <trkpt lat="50.437571005895734" lon="7.604563962668181">
        <ele>263.28296599999999</ele>
        <time>2026-04-06T07:50:48Z</time>
      </trkpt>
      <trkpt lat="50.437490036711097" lon="7.604289958253503">
        <ele>262.03545000000003</ele>
        <time>2026-04-06T07:50:52Z</time>
      </trkpt>
      <trkpt lat="50.43724101036787" lon="7.603729963302612">
        <ele>259.23523599999999</ele>
        <time>2026-04-06T07:51:00Z</time>
      </trkpt>
      <trkpt lat="50.436839014291763" lon="7.603495018556714">
        <ele>256.38671900000003</ele>
        <time>2026-04-06T07:51:08Z</time>
      </trkpt>
      <trkpt lat="50.43657599017024" lon="7.603485966101289">
        <ele>254.69575</ele>
        <time>2026-04-06T07:51:13Z</time>
      </trkpt>
      <trkpt lat="50.436236020177603" lon="7.603337019681931">
        <ele>252.48321899999999</ele>
        <time>2026-04-06T07:51:19Z</time>
      </trkpt>
      <trkpt lat="50.43558700941503" lon="7.602965030819178">
        <ele>248.18701799999999</ele>
        <time>2026-04-06T07:51:31Z</time>
      </trkpt>
      <trkpt lat="50.435311999171972" lon="7.602951033040881">
        <ele>246.47074000000001</ele>
        <time>2026-04-06T07:51:37Z</time>
      </trkpt>
      <trkpt lat="50.434868009760976" lon="7.60294902138412">
        <ele>243.70837</ele>
        <time>2026-04-06T07:51:45Z</time>
      </trkpt>
      <trkpt lat="50.434657037258148" lon="7.602836033329368">
        <ele>242.49748500000001</ele>
        <time>2026-04-06T07:51:49Z</time>
      </trkpt>
      <trkpt lat="50.434446986764669" lon="7.602634029462934">
        <ele>241.252197</ele>
        <time>2026-04-06T07:51:53Z</time>
      </trkpt>
      <trkpt lat="50.434272978454828" lon="7.60241199284792">
        <ele>240.12163100000001</ele>
        <time>2026-04-06T07:51:57Z</time>
      </trkpt>
      <trkpt lat="50.433941977098584" lon="7.601872030645609">
        <ele>237.71158399999999</ele>
        <time>2026-04-06T07:52:06Z</time>
      </trkpt>
      <trkpt lat="50.433483989909291" lon="7.601267024874687">
        <ele>234.689853</ele>
        <time>2026-04-06T07:52:17Z</time>
      </trkpt>
      <trkpt lat="50.432911003008485" lon="7.600578032433987">
        <ele>231.309629</ele>
        <time>2026-04-06T07:52:29Z</time>
      </trkpt>
      <trkpt lat="50.432547982782125" lon="7.600259017199278">
        <ele>229.378445</ele>
        <time>2026-04-06T07:52:38Z</time>
      </trkpt>
      <trkpt lat="50.43244999833405" lon="7.600233033299446">
        <ele>228.91572400000001</ele>
        <time>2026-04-06T07:53:05Z</time>
      </trkpt>
      <trkpt lat="50.432432983070612" lon="7.600233033299446">
        <ele>228.837109</ele>
        <time>2026-04-06T07:53:07Z</time>
      </trkpt>
      <trkpt lat="50.432139029726386" lon="7.600482981652021">
        <ele>227.284108</ele>
        <time>2026-04-06T07:53:18Z</time>
      </trkpt>
      <trkpt lat="50.431636031717062" lon="7.601009029895067">
        <ele>224.368448</ele>
        <time>2026-04-06T07:53:28Z</time>
      </trkpt>
      <trkpt lat="50.431596972048283" lon="7.601078012958169">
        <ele>224.07340600000001</ele>
        <time>2026-04-06T07:53:29Z</time>
      </trkpt>
      <trkpt lat="50.431508040055633" lon="7.601429969072342">
        <ele>222.85535300000001</ele>
        <time>2026-04-06T07:53:33Z</time>
      </trkpt>
      <trkpt lat="50.43139697983861" lon="7.602149974554777">
        <ele>220.48568</ele>
        <time>2026-04-06T07:53:42Z</time>
      </trkpt>
      <trkpt lat="50.43135398067534" lon="7.602481981739402">
        <ele>219.402075</ele>
        <time>2026-04-06T07:53:48Z</time>
      </trkpt>
      <trkpt lat="50.43107695877552" lon="7.603053962811828">
        <ele>217.083631</ele>
        <time>2026-04-06T07:54:00Z</time>
      </trkpt>
      <trkpt lat="50.431039994582534" lon="7.603104002773762">
        <ele>216.83530099999999</ele>
        <time>2026-04-06T07:54:02Z</time>
      </trkpt>
      <trkpt lat="50.431023985147476" lon="7.603159993886948">
        <ele>216.50174200000001</ele>
        <time>2026-04-06T07:54:33Z</time>
      </trkpt>
      <trkpt lat="50.430875038728118" lon="7.602898981422186">
        <ele>214.98081099999999</ele>
        <time>2026-04-06T07:54:42Z</time>
      </trkpt>
      <trkpt lat="50.430867997929454" lon="7.602862017229199">
        <ele>214.824285</ele>
        <time>2026-04-06T07:54:43Z</time>
      </trkpt>
      <trkpt lat="50.430857017636299" lon="7.602806026116014">
        <ele>214.586367</ele>
        <time>2026-04-06T07:55:12Z</time>
      </trkpt>
      <trkpt lat="50.430762972682714" lon="7.602399000898004">
        <ele>212.82830999999999</ele>
        <time>2026-04-06T07:55:27Z</time>
      </trkpt>
      <trkpt lat="50.430583013221622" lon="7.601565001532435">
        <ele>209.25694999999999</ele>
        <time>2026-04-06T07:55:36Z</time>
      </trkpt>
      <trkpt lat="50.430448986589909" lon="7.600956978276372">
        <ele>206.64770100000001</ele>
        <time>2026-04-06T07:55:42Z</time>
      </trkpt>
      <trkpt lat="50.430205995216966" lon="7.600292041897774">
        <ele>203.24729199999999</ele>
        <time>2026-04-06T07:55:50Z</time>
      </trkpt>
      <trkpt lat="50.430059982463717" lon="7.600002028048039">
        <ele>201.52147199999999</ele>
        <time>2026-04-06T07:55:54Z</time>
      </trkpt>
      <trkpt lat="50.429894020780921" lon="7.599313035607338">
        <ele>198.06875600000001</ele>
        <time>2026-04-06T07:56:01Z</time>
      </trkpt>
      <trkpt lat="50.429887985810637" lon="7.59910399094224">
        <ele>197.09207599999999</ele>
        <time>2026-04-06T07:56:03Z</time>
      </trkpt>
      <trkpt lat="50.42987298220396" lon="7.598114004358649">
        <ele>192.46858</ele>
        <time>2026-04-06T07:56:11Z</time>
      </trkpt>
      <trkpt lat="50.42982998304069" lon="7.597668003290892">
        <ele>190.13000099999999</ele>
        <time>2026-04-06T07:56:16Z</time>
      </trkpt>
      <trkpt lat="50.429723029956222" lon="7.597016980871558">
        <ele>186.59801200000001</ele>
        <time>2026-04-06T07:56:22Z</time>
      </trkpt>
      <trkpt lat="50.429682964459062" lon="7.596798967570067">
        <ele>185.40631999999999</ele>
        <time>2026-04-06T07:56:24Z</time>
      </trkpt>
      <trkpt lat="50.429509961977601" lon="7.596283983439207">
        <ele>182.33828299999999</ele>
        <time>2026-04-06T07:56:28Z</time>
      </trkpt>
      <trkpt lat="50.429249033331871" lon="7.595742009580135">
        <ele>178.765738</ele>
        <time>2026-04-06T07:56:35Z</time>
      </trkpt>
      <trkpt lat="50.429149959236383" lon="7.595569007098675">
        <ele>177.54414600000001</ele>
        <time>2026-04-06T07:56:36Z</time>
      </trkpt>
      <trkpt lat="50.429109977558255" lon="7.595186959952116">
        <ele>175.79125099999999</ele>
        <time>2026-04-06T07:56:40Z</time>
      </trkpt>
      <trkpt lat="50.429086005315185" lon="7.594405012205243">
        <ele>172.330502</ele>
        <time>2026-04-06T07:56:47Z</time>
      </trkpt>
      <trkpt lat="50.429084999486804" lon="7.59418398141861">
        <ele>171.35365899999999</ele>
        <time>2026-04-06T07:56:49Z</time>
      </trkpt>
      <trkpt lat="50.429066978394985" lon="7.593736974522471">
        <ele>169.37272200000001</ele>
        <time>2026-04-06T07:56:53Z</time>
      </trkpt>
      <trkpt lat="50.429067984223366" lon="7.593306982889772">
        <ele>167.469874</ele>
        <time>2026-04-06T07:56:57Z</time>
      </trkpt>
      <trkpt lat="50.429061027243733" lon="7.593101961538196">
        <ele>166.56247500000001</ele>
        <time>2026-04-06T07:56:59Z</time>
      </trkpt>
      <trkpt lat="50.429311981424689" lon="7.592626959085465">
        <ele>163.76970399999999</ele>
        <time>2026-04-06T07:57:05Z</time>
      </trkpt>
      <trkpt lat="50.429681036621332" lon="7.592404000461102">
        <ele>161.08839</ele>
        <time>2026-04-06T07:57:12Z</time>
      </trkpt>
      <trkpt lat="50.42985001578927" lon="7.592257987707853">
        <ele>159.782758</ele>
        <time>2026-04-06T07:57:16Z</time>
      </trkpt>
      <trkpt lat="50.430083032697439" lon="7.591722970828414">
        <ele>156.89889299999999</ele>
        <time>2026-04-06T07:57:22Z</time>
      </trkpt>
      <trkpt lat="50.430053025484085" lon="7.591163981705904">
        <ele>154.463065</ele>
        <time>2026-04-06T07:57:28Z</time>
      </trkpt>
      <trkpt lat="50.430023018270731" lon="7.590801967307925">
        <ele>152.884691</ele>
        <time>2026-04-06T07:57:33Z</time>
      </trkpt>
      <trkpt lat="50.430075991898775" lon="7.590520000085235">
        <ele>151.523763</ele>
        <time>2026-04-06T07:57:35Z</time>
      </trkpt>
      <trkpt lat="50.430125026032329" lon="7.590070981532335">
        <ele>149.395746</ele>
        <time>2026-04-06T07:57:40Z</time>
      </trkpt>
      <trkpt lat="50.430003991350532" lon="7.589560020714998">
        <ele>146.73623900000001</ele>
        <time>2026-04-06T07:57:48Z</time>
      </trkpt>
      <trkpt lat="50.429810034111142" lon="7.58915500715375">
        <ele>144.36850799999999</ele>
        <time>2026-04-06T07:57:54Z</time>
      </trkpt>
      <trkpt lat="50.429648011922836" lon="7.588857030496001">
        <ele>142.53843499999999</ele>
        <time>2026-04-06T07:57:58Z</time>
      </trkpt>
      <trkpt lat="50.429466962814331" lon="7.588634993880987">
        <ele>140.850919</ele>
        <time>2026-04-06T07:58:04Z</time>
      </trkpt>
      <trkpt lat="50.429175021126866" lon="7.5882319919765">
        <ele>138.47934799999999</ele>
        <time>2026-04-06T07:58:16Z</time>
      </trkpt>
      <trkpt lat="50.428952984511852" lon="7.588020013645291">
        <ele>137.16530700000001</ele>
        <time>2026-04-06T07:58:46Z</time>
      </trkpt>
      <trkpt lat="50.428330041468143" lon="7.587611982598901">
        <ele>133.75548800000001</ele>
        <time>2026-04-06T07:59:01Z</time>
      </trkpt>
      <trkpt lat="50.428289975970984" lon="7.587593039497733">
        <ele>133.54455799999999</ele>
        <time>2026-04-06T07:59:02Z</time>
      </trkpt>
      <trkpt lat="50.42800297960639" lon="7.587511986494064">
        <ele>132.070032</ele>
        <time>2026-04-06T07:59:10Z</time>
      </trkpt>
      <trkpt lat="50.427705002948642" lon="7.58745800703764">
        <ele>130.54794899999999</ele>
        <time>2026-04-06T07:59:18Z</time>
      </trkpt>
      <trkpt lat="50.427590003237128" lon="7.587392963469029">
        <ele>129.72268399999999</ele>
        <time>2026-04-06T07:59:21Z</time>
      </trkpt>
      <trkpt lat="50.427447007969022" lon="7.587288022041321">
        <ele>128.616478</ele>
        <time>2026-04-06T07:59:24Z</time>
      </trkpt>
      <trkpt lat="50.427290014922619" lon="7.587161958217621">
        <ele>127.38091799999999</ele>
        <time>2026-04-06T07:59:28Z</time>
      </trkpt>
      <trkpt lat="50.426912996917963" lon="7.586875967681408">
        <ele>124.432321</ele>
        <time>2026-04-06T07:59:36Z</time>
      </trkpt>
      <trkpt lat="50.426830016076565" lon="7.586714029312134">
        <ele>123.498621</ele>
        <time>2026-04-06T07:59:39Z</time>
      </trkpt>
      <trkpt lat="50.426820041611791" lon="7.586548989638686">
        <ele>122.697965</ele>
        <time>2026-04-06T08:00:03Z</time>
      </trkpt>
      <trkpt lat="50.426879972219467" lon="7.58623500354588">
        <ele>121.222341</ele>
        <time>2026-04-06T08:00:23Z</time>
      </trkpt>
      <trkpt lat="50.427089016884565" lon="7.585623962804675">
        <ele>118.12652199999999</ele>
        <time>2026-04-06T08:00:32Z</time>
      </trkpt>
      <trkpt lat="50.427360003814101" lon="7.585257003083825">
        <ele>116.84255899999999</ele>
        <time>2026-04-06T08:00:38Z</time>
      </trkpt>
      <trkpt lat="50.427514985203743" lon="7.585093975067139">
        <ele>116.25443</ele>
        <time>2026-04-06T08:00:41Z</time>
      </trkpt>
      <trkpt lat="50.427674995735288" lon="7.584680998697877">
        <ele>115.265139</ele>
        <time>2026-04-06T08:00:46Z</time>
      </trkpt>
      <trkpt lat="50.427689999341965" lon="7.584581002593041">
        <ele>115.05882699999999</ele>
        <time>2026-04-06T08:00:47Z</time>
      </trkpt>
      <trkpt lat="50.427515991032124" lon="7.583858985453844">
        <ele>113.470039</ele>
        <time>2026-04-06T08:00:55Z</time>
      </trkpt>
      <trkpt lat="50.427442984655499" lon="7.583681959658861">
        <ele>113.04659599999999</ele>
        <time>2026-04-06T08:00:57Z</time>
      </trkpt>
      <trkpt lat="50.427241986617446" lon="7.582483012229204">
        <ele>110.669546</ele>
        <time>2026-04-06T08:01:09Z</time>
      </trkpt>
      <trkpt lat="50.427162023261189" lon="7.581867026165128">
        <ele>109.51071399999999</ele>
        <time>2026-04-06T08:01:15Z</time>
      </trkpt>
      <trkpt lat="50.426930012181401" lon="7.580316960811615">
        <ele>106.48586299999999</ele>
        <time>2026-04-06T08:01:31Z</time>
      </trkpt>
      <trkpt lat="50.426916014403105" lon="7.580221993848681">
        <ele>106.268277</ele>
        <time>2026-04-06T08:01:32Z</time>
      </trkpt>
      <trkpt lat="50.426900004968047" lon="7.580127026885748">
        <ele>106.049007</ele>
        <time>2026-04-06T08:01:33Z</time>
      </trkpt>
      <trkpt lat="50.426758015528321" lon="7.579571977257729">
        <ele>104.71236</ele>
        <time>2026-04-06T08:01:39Z</time>
      </trkpt>
      <trkpt lat="50.426488034427166" lon="7.579135028645396">
        <ele>103.347082</ele>
        <time>2026-04-06T08:01:45Z</time>
      </trkpt>
      <trkpt lat="50.425780015066266" lon="7.578397002071142">
        <ele>100.4738</ele>
        <time>2026-04-06T08:01:58Z</time>
      </trkpt>
      <trkpt lat="50.42568001896143" lon="7.57832701317966">
        <ele>100.21318599999999</ele>
        <time>2026-04-06T08:02:00Z</time>
      </trkpt>
      <trkpt lat="50.425559990108013" lon="7.578261969611049">
        <ele>99.911011000000002</ele>
        <time>2026-04-06T08:02:03Z</time>
      </trkpt>
      <trkpt lat="50.425581028684974" lon="7.577842036262155">
        <ele>99.218609000000001</ele>
        <time>2026-04-06T08:02:11Z</time>
      </trkpt>
      <trkpt lat="50.425635008141398" lon="7.577613964676857">
        <ele>98.849577999999994</ele>
        <time>2026-04-06T08:02:16Z</time>
      </trkpt>
      <trkpt lat="50.425752019509673" lon="7.576982975006104">
        <ele>97.852551000000005</ele>
        <time>2026-04-06T08:02:26Z</time>
      </trkpt>
      <trkpt lat="50.426252000033855" lon="7.575413966551423">
        <ele>97.111294000000001</ele>
        <time>2026-04-06T08:02:48Z</time>
      </trkpt>
      <trkpt lat="50.426383009180427" lon="7.575207017362118">
        <ele>97.360257000000004</ele>
        <time>2026-04-06T08:02:52Z</time>
      </trkpt>
      <trkpt lat="50.426451992243528" lon="7.575106015428901">
        <ele>97.486433000000005</ele>
        <time>2026-04-06T08:02:55Z</time>
      </trkpt>
      <trkpt lat="50.42666899971664" lon="7.57521296851337">
        <ele>97.842291000000003</ele>
        <time>2026-04-06T08:03:06Z</time>
      </trkpt>
      <trkpt lat="50.426752986386418" lon="7.575383959338069">
        <ele>98.027657000000005</ele>
        <time>2026-04-06T08:03:12Z</time>
      </trkpt>
      <trkpt lat="50.427047023549676" lon="7.575845969840884">
        <ele>98.590131</ele>
        <time>2026-04-06T08:03:30Z</time>
      </trkpt>
      <trkpt lat="50.427539041265845" lon="7.576619032770395">
        <ele>99.910926000000003</ele>
        <time>2026-04-06T08:04:01Z</time>
      </trkpt>
      <trkpt lat="50.427882028743625" lon="7.577018011361361">
        <ele>100.79407399999999</ele>
        <time>2026-04-06T08:04:17Z</time>
      </trkpt>
      <trkpt lat="50.428257035091519" lon="7.576748030260205">
        <ele>101.67628000000001</ele>
        <time>2026-04-06T08:04:30Z</time>
      </trkpt>
      <trkpt lat="50.428393995389342" lon="7.576577961444855">
        <ele>102.037271</ele>
        <time>2026-04-06T08:04:34Z</time>
      </trkpt>
      <trkpt lat="50.429229000583291" lon="7.575826020911336">
        <ele>104.00526600000001</ele>
        <time>2026-04-06T08:05:05Z</time>
      </trkpt>
      <trkpt lat="50.429897038266063" lon="7.575680008158088">
        <ele>105.368278</ele>
        <time>2026-04-06T08:05:30Z</time>
      </trkpt>
      <trkpt lat="50.430520987138152" lon="7.575334003195167">
        <ele>105.325846</ele>
        <time>2026-04-06T08:05:51Z</time>
      </trkpt>
      <trkpt lat="50.430811000987887" lon="7.575073996558785">
        <ele>104.260841</ele>
        <time>2026-04-06T08:06:03Z</time>
      </trkpt>
      <trkpt lat="50.431120963767171" lon="7.574449963867664">
        <ele>102.65011199999999</ele>
        <time>2026-04-06T08:06:17Z</time>
      </trkpt>
      <trkpt lat="50.431183995679021" lon="7.574262041598558">
        <ele>102.218805</ele>
        <time>2026-04-06T08:06:21Z</time>
      </trkpt>
      <trkpt lat="50.431277034804225" lon="7.573878988623619">
        <ele>101.38321000000001</ele>
        <time>2026-04-06T08:06:27Z</time>
      </trkpt>
      <trkpt lat="50.431257002055645" lon="7.573500964790583">
        <ele>100.61297500000001</ele>
        <time>2026-04-06T08:06:31Z</time>
      </trkpt>
      <trkpt lat="50.431248033419251" lon="7.5730200111866">
        <ele>99.361611999999994</ele>
        <time>2026-04-06T08:07:04Z</time>
      </trkpt>
      <trkpt lat="50.431638965383172" lon="7.573562990874052">
        <ele>97.140449000000004</ele>
        <time>2026-04-06T08:07:21Z</time>
      </trkpt>
      <trkpt lat="50.431773997843266" lon="7.573583023622632">
        <ele>96.576528999999994</ele>
        <time>2026-04-06T08:07:26Z</time>
      </trkpt>
      <trkpt lat="50.432310020551085" lon="7.573500964790583">
        <ele>94.432441999999995</ele>
        <time>2026-04-06T08:07:41Z</time>
      </trkpt>
      <trkpt lat="50.432829027995467" lon="7.573598027229309">
        <ele>92.285121000000004</ele>
        <time>2026-04-06T08:07:54Z</time>
      </trkpt>
      <trkpt lat="50.433536041527987" lon="7.57394302636385">
        <ele>89.021120999999994</ele>
        <time>2026-04-06T08:08:12Z</time>
      </trkpt>
      <trkpt lat="50.433565964922309" lon="7.573975967243314">
        <ele>88.864828000000003</ele>
        <time>2026-04-06T08:08:13Z</time>
      </trkpt>
      <trkpt lat="50.433649029582739" lon="7.574108988046646">
        <ele>88.358800000000002</ele>
        <time>2026-04-06T08:08:17Z</time>
      </trkpt>
      <trkpt lat="50.433775009587407" lon="7.574492963030934">
        <ele>87.173409000000007</ele>
        <time>2026-04-06T08:08:24Z</time>
      </trkpt>
      <trkpt lat="50.433949017897248" lon="7.574769984930754">
        <ele>86.110274000000004</ele>
        <time>2026-04-06T08:08:59Z</time>
      </trkpt>
      <trkpt lat="50.434727026149631" lon="7.575561990961433">
        <ele>84.624512999999993</ele>
        <time>2026-04-06T08:09:31Z</time>
      </trkpt>
      <trkpt lat="50.435286015272141" lon="7.575532989576459">
        <ele>83.930819999999997</ele>
        <time>2026-04-06T08:09:51Z</time>
      </trkpt>
      <trkpt lat="50.435319961979985" lon="7.575392005965114">
        <ele>83.812889999999996</ele>
        <time>2026-04-06T08:10:20Z</time>
      </trkpt>
      <trkpt lat="50.435605030506849" lon="7.574921026825905">
        <ele>83.027134000000004</ele>
        <time>2026-04-06T08:10:34Z</time>
      </trkpt>
      <trkpt lat="50.435741990804672" lon="7.574617015197873">
        <ele>82.250505000000004</ele>
        <time>2026-04-06T08:10:39Z</time>
      </trkpt>
      <trkpt lat="50.436224034056067" lon="7.573783015832305">
        <ele>79.901629999999997</ele>
        <time>2026-04-06T08:10:55Z</time>
      </trkpt>
      <trkpt lat="50.436431989073753" lon="7.573519991710782">
        <ele>79.009660999999994</ele>
        <time>2026-04-06T08:11:04Z</time>
      </trkpt>
      <trkpt lat="50.436642961576581" lon="7.573532983660698">
        <ele>78.282447000000005</ele>
        <time>2026-04-06T08:11:17Z</time>
      </trkpt>
      <trkpt lat="50.43646601960063" lon="7.572926972061396">
        <ele>77.382069999999999</ele>
        <time>2026-04-06T08:11:28Z</time>
      </trkpt>
      <trkpt lat="50.436415979638696" lon="7.572713987901807">
        <ele>77.252291</ele>
        <time>2026-04-06T08:11:31Z</time>
      </trkpt>
      <trkpt lat="50.436311960220337" lon="7.572274021804333">
        <ele>76.983980000000003</ele>
        <time>2026-04-06T08:11:37Z</time>
      </trkpt>
      <trkpt lat="50.436207018792629" lon="7.571959029883146">
        <ele>76.780677999999995</ele>
        <time>2026-04-06T08:11:42Z</time>
      </trkpt>
      <trkpt lat="50.436291005462408" lon="7.571566002443433">
        <ele>76.533102</ele>
        <time>2026-04-06T08:12:04Z</time>
      </trkpt>
      <trkpt lat="50.436487980186939" lon="7.571221003308892">
        <ele>76.267314999999996</ele>
        <time>2026-04-06T08:13:02Z</time>
      </trkpt>
      <trkpt lat="50.436567021533847" lon="7.570855971425772">
        <ele>76.042237999999998</ele>
        <time>2026-04-06T08:13:20Z</time>
      </trkpt>
      <trkpt lat="50.436628963798285" lon="7.570638963952661">
        <ele>75.953072000000006</ele>
        <time>2026-04-06T08:13:32Z</time>
      </trkpt>
      <trkpt lat="50.436612032353878" lon="7.570538967847824">
        <ele>75.943969999999993</ele>
        <time>2026-04-06T08:13:39Z</time>
      </trkpt>
      <trkpt lat="50.436542965471745" lon="7.570247026160359">
        <ele>75.915161999999995</ele>
        <time>2026-04-06T08:13:55Z</time>
      </trkpt>
      <trkpt lat="50.436571966856718" lon="7.570114005357027">
        <ele>75.903002999999998</ele>
        <time>2026-04-06T08:14:02Z</time>
      </trkpt>
      <trkpt lat="50.436550006270409" lon="7.570014009252191">
        <ele>75.893518999999998</ele>
        <time>2026-04-06T08:14:09Z</time>
      </trkpt>
      <trkpt lat="50.436544977128506" lon="7.569487038999796">
        <ele>75.847189999999998</ele>
        <time>2026-04-06T08:14:32Z</time>
      </trkpt>
      <trkpt lat="50.436556041240692" lon="7.569354018196464">
        <ele>75.835594999999998</ele>
        <time>2026-04-06T08:14:38Z</time>
      </trkpt>
      <trkpt lat="50.436729965731502" lon="7.568539967760444">
        <ele>75.758948000000004</ele>
        <time>2026-04-06T08:15:24Z</time>
      </trkpt>
      <trkpt lat="50.436798026785254" lon="7.568519013002515">
        <ele>75.749534999999995</ele>
        <time>2026-04-06T08:15:29Z</time>
      </trkpt>
      <trkpt lat="50.436891987919807" lon="7.56848799996078">
        <ele>75.736497</ele>
        <time>2026-04-06T08:15:35Z</time>
      </trkpt>
      <trkpt lat="50.437056021764874" lon="7.568413987755776">
        <ele>75.886810999999994</ele>
        <time>2026-04-06T08:15:44Z</time>
      </trkpt>
      <trkpt lat="50.437767980620265" lon="7.56822899915278">
        <ele>79.591819999999998</ele>
        <time>2026-04-06T08:16:15Z</time>
      </trkpt>
      <trkpt lat="50.438396958634257" lon="7.568089021369815">
        <ele>82.849885</ele>
        <time>2026-04-06T08:16:45Z</time>
      </trkpt>
      <trkpt lat="50.438890988007188" lon="7.567976033315063">
        <ele>85.852898999999994</ele>
        <time>2026-04-06T08:17:10Z</time>
      </trkpt>
      <trkpt lat="50.43923799879849" lon="7.567763971164823">
        <ele>89.570963000000006</ele>
        <time>2026-04-06T08:17:31Z</time>
      </trkpt>
      <trkpt lat="50.439250990748405" lon="7.567746033892036">
        <ele>89.741791000000006</ele>
        <time>2026-04-06T08:17:32Z</time>
      </trkpt>
      <trkpt lat="50.439357021823525" lon="7.567623993381858">
        <ele>91.037148000000002</ele>
        <time>2026-04-06T08:17:40Z</time>
      </trkpt>
      <trkpt lat="50.43960495851934" lon="7.567445039749146">
        <ele>93.748975999999999</ele>
        <time>2026-04-06T08:17:56Z</time>
      </trkpt>
      <trkpt lat="50.439773015677929" lon="7.567277988418937">
        <ele>95.714820000000003</ele>
        <time>2026-04-06T08:18:08Z</time>
      </trkpt>
      <trkpt lat="50.43986395932734" lon="7.567249992862344">
        <ele>96.633714999999995</ele>
        <time>2026-04-06T08:18:14Z</time>
      </trkpt>
      <trkpt lat="50.439963033422828" lon="7.567201964557171">
        <ele>97.655654999999996</ele>
        <time>2026-04-06T08:18:21Z</time>
      </trkpt>
      <trkpt lat="50.440220022574067" lon="7.567158965393901">
        <ele>100.209</ele>
        <time>2026-04-06T08:18:36Z</time>
      </trkpt>
      <trkpt lat="50.440540965646505" lon="7.567119989544153">
        <ele>103.223316</ele>
        <time>2026-04-06T08:18:57Z</time>
      </trkpt>
      <trkpt lat="50.440895017236471" lon="7.567129964008927">
        <ele>105.874668</ele>
        <time>2026-04-06T08:19:19Z</time>
      </trkpt>
      <trkpt lat="50.440984033048153" lon="7.567166006192565">
        <ele>106.55592</ele>
        <time>2026-04-06T08:19:25Z</time>
      </trkpt>
      <trkpt lat="50.441047986969352" lon="7.567131975665689">
        <ele>107.056842</ele>
        <time>2026-04-06T08:19:29Z</time>
      </trkpt>
      <trkpt lat="50.441460041329265" lon="7.567188972607255">
        <ele>110.14294</ele>
        <time>2026-04-06T08:19:53Z</time>
      </trkpt>
      <trkpt lat="50.441661961376667" lon="7.567204982042313">
        <ele>111.650813</ele>
        <time>2026-04-06T08:20:04Z</time>
      </trkpt>
      <trkpt lat="50.441882992163301" lon="7.567097023129463">
        <ele>113.36983600000001</ele>
        <time>2026-04-06T08:20:17Z</time>
      </trkpt>
      <trkpt lat="50.442257998511195" lon="7.566884038969874">
        <ele>116.31315499999999</ele>
        <time>2026-04-06T08:21:08Z</time>
      </trkpt>
      <trkpt lat="50.44263401068747" lon="7.566496040672064">
        <ele>119.46033300000001</ele>
        <time>2026-04-06T08:21:39Z</time>
      </trkpt>
      <trkpt lat="50.443079005926847" lon="7.566235028207302">
        <ele>122.779188</ele>
        <time>2026-04-06T08:22:20Z</time>
      </trkpt>
      <trkpt lat="50.443485025316477" lon="7.56599597632885">
        <ele>125.803811</ele>
        <time>2026-04-06T08:23:00Z</time>
      </trkpt>
      <trkpt lat="50.443959021940827" lon="7.565765976905823">
        <ele>128.91201699999999</ele>
        <time>2026-04-06T08:23:41Z</time>
      </trkpt>
      <trkpt lat="50.444145016372204" lon="7.565680984407663">
        <ele>129.625756</ele>
        <time>2026-04-06T08:24:04Z</time>
      </trkpt>
      <trkpt lat="50.444404017180204" lon="7.565631028264761">
        <ele>130.58918700000001</ele>
        <time>2026-04-06T08:24:18Z</time>
      </trkpt>
      <trkpt lat="50.444708028808236" lon="7.565614013001323">
        <ele>131.74544399999999</ele>
        <time>2026-04-06T08:24:57Z</time>
      </trkpt>
      <trkpt lat="50.444710962474346" lon="7.565593980252743">
        <ele>131.793531</ele>
        <time>2026-04-06T08:24:58Z</time>
      </trkpt>
      <trkpt lat="50.445071971043944" lon="7.564471978694201">
        <ele>134.78849</ele>
        <time>2026-04-06T08:25:26Z</time>
      </trkpt>
      <trkpt lat="50.445544039830565" lon="7.563734035938978">
        <ele>137.507203</ele>
        <time>2026-04-06T08:25:47Z</time>
      </trkpt>
      <trkpt lat="50.445760041475296" lon="7.563358023762703">
        <ele>138.838888</ele>
        <time>2026-04-06T08:26:27Z</time>
      </trkpt>
      <trkpt lat="50.445967996492982" lon="7.563222991302609">
        <ele>139.94346100000001</ele>
        <time>2026-04-06T08:26:42Z</time>
      </trkpt>
      <trkpt lat="50.446563027799129" lon="7.564004017040134">
        <ele>143.37391600000001</ele>
        <time>2026-04-06T08:27:22Z</time>
      </trkpt>
      <trkpt lat="50.447005005553365" lon="7.564649004489183">
        <ele>146.57843</ele>
        <time>2026-04-06T08:27:56Z</time>
      </trkpt>
      <trkpt lat="50.447457963600755" lon="7.565355012193322">
        <ele>149.96684400000001</ele>
        <time>2026-04-06T08:28:26Z</time>
      </trkpt>
      <trkpt lat="50.447561983019114" lon="7.565507981926203">
        <ele>150.72324499999999</ele>
        <time>2026-04-06T08:28:33Z</time>
      </trkpt>
      <trkpt lat="50.448021981865168" lon="7.566127991303802">
        <ele>153.80194</ele>
        <time>2026-04-06T08:29:02Z</time>
      </trkpt>
      <trkpt lat="50.448722960427403" lon="7.566225975751877">
        <ele>157.240058</ele>
        <time>2026-04-06T08:29:35Z</time>
      </trkpt>
      <trkpt lat="50.449052033945918" lon="7.566280039027333">
        <ele>158.85829899999999</ele>
        <time>2026-04-06T08:29:50Z</time>
      </trkpt>
      <trkpt lat="50.449734991416335" lon="7.565646031871438">
        <ele>162.14649199999999</ele>
        <time>2026-04-06T08:30:21Z</time>
      </trkpt>
      <trkpt lat="50.45045399107039" lon="7.564906999468803">
        <ele>165.036159</ele>
        <time>2026-04-06T08:31:11Z</time>
      </trkpt>
      <trkpt lat="50.451130997389555" lon="7.563744010403752">
        <ele>166.6104</ele>
        <time>2026-04-06T08:31:53Z</time>
      </trkpt>
      <trkpt lat="50.451563000679016" lon="7.562785036861897">
        <ele>166.18319099999999</ele>
        <time>2026-04-06T08:32:36Z</time>
      </trkpt>
      <trkpt lat="50.451725022867322" lon="7.562466021627188">
        <ele>166.03411800000001</ele>
        <time>2026-04-06T08:32:47Z</time>
      </trkpt>
      <trkpt lat="50.45249599032104" lon="7.56083800457418">
        <ele>163.00009299999999</ele>
        <time>2026-04-06T08:33:23Z</time>
      </trkpt>
      <trkpt lat="50.452868985012174" lon="7.560596019029617">
        <ele>161.83129299999999</ele>
        <time>2026-04-06T08:33:38Z</time>
      </trkpt>
      <trkpt lat="50.45286001637578" lon="7.560512032359839">
        <ele>161.66096400000001</ele>
        <time>2026-04-06T08:33:53Z</time>
      </trkpt>
      <trkpt lat="50.45281601138413" lon="7.560446988791227">
        <ele>161.486661</ele>
        <time>2026-04-06T08:33:59Z</time>
      </trkpt>
      <trkpt lat="50.452883988618851" lon="7.560125961899757">
        <ele>160.78950699999999</ele>
        <time>2026-04-06T08:34:38Z</time>
      </trkpt>
      <trkpt lat="50.452874014154077" lon="7.560062007978559">
        <ele>160.63637900000001</ele>
        <time>2026-04-06T08:36:02Z</time>
      </trkpt>
      <trkpt lat="50.452884994447231" lon="7.560015991330147">
        <ele>160.45098400000001</ele>
        <time>2026-04-06T08:36:05Z</time>
      </trkpt>
      <trkpt lat="50.452878959476948" lon="7.559852041304112">
        <ele>158.07845499999999</ele>
        <time>2026-04-06T08:37:07Z</time>
      </trkpt>
      <trkpt lat="50.452853981405497" lon="7.559159025549889">
        <ele>155.519194</ele>
        <time>2026-04-06T08:37:19Z</time>
      </trkpt>
      <trkpt lat="50.452806036919355" lon="7.558877980336547">
        <ele>154.446392</ele>
        <time>2026-04-06T08:37:23Z</time>
      </trkpt>
      <trkpt lat="50.452790027484298" lon="7.558803968131542">
        <ele>154.15834899999999</ele>
        <time>2026-04-06T08:37:24Z</time>
      </trkpt>
      <trkpt lat="50.452657006680965" lon="7.558318991214037">
        <ele>152.20966000000001</ele>
        <time>2026-04-06T08:37:30Z</time>
      </trkpt>
      <trkpt lat="50.452527003362775" lon="7.557732006534934">
        <ele>149.95284799999999</ele>
        <time>2026-04-06T08:37:37Z</time>
      </trkpt>
      <trkpt lat="50.452362969517708" lon="7.557193972170353">
        <ele>147.95424</ele>
        <time>2026-04-06T08:37:44Z</time>
      </trkpt>
      <trkpt lat="50.452139005064964" lon="7.556720981374383">
        <ele>145.98161300000001</ele>
        <time>2026-04-06T08:37:51Z</time>
      </trkpt>
      <trkpt lat="50.451779002323747" lon="7.55617599003017">
        <ele>143.35369600000001</ele>
        <time>2026-04-06T08:38:00Z</time>
      </trkpt>
      <trkpt lat="50.45161304064095" lon="7.55593802779913">
        <ele>142.172471</ele>
        <time>2026-04-06T08:38:04Z</time>
      </trkpt>
      <trkpt lat="50.451480019837618" lon="7.55568296648562">
        <ele>141.06931900000001</ele>
        <time>2026-04-06T08:38:08Z</time>
      </trkpt>
      <trkpt lat="50.451280027627945" lon="7.555285999551415">
        <ele>139.659066</ele>
        <time>2026-04-06T08:38:14Z</time>
      </trkpt>
      <trkpt lat="50.451095961034298" lon="7.554899007081986">
        <ele>138.35642799999999</ele>
        <time>2026-04-06T08:38:19Z</time>
      </trkpt>
      <trkpt lat="50.450720032677054" lon="7.554205991327763">
        <ele>135.90093200000001</ele>
        <time>2026-04-06T08:38:28Z</time>
      </trkpt>
      <trkpt lat="50.450684996321797" lon="7.554117981344461">
        <ele>135.62112500000001</ele>
        <time>2026-04-06T08:38:29Z</time>
      </trkpt>
      <trkpt lat="50.450592963024974" lon="7.55385797470808">
        <ele>134.81858500000001</ele>
        <time>2026-04-06T08:38:32Z</time>
      </trkpt>
      <trkpt lat="50.450395988300443" lon="7.553337961435318">
        <ele>133.17979500000001</ele>
        <time>2026-04-06T08:38:39Z</time>
      </trkpt>
      <trkpt lat="50.450376961380243" lon="7.553260009735823">
        <ele>132.90688900000001</ele>
        <time>2026-04-06T08:38:40Z</time>
      </trkpt>
      <trkpt lat="50.450361035764217" lon="7.553179040551186">
        <ele>132.629749</ele>
        <time>2026-04-06T08:38:41Z</time>
      </trkpt>
      <trkpt lat="50.450318036600947" lon="7.552921967580915">
        <ele>131.761403</ele>
        <time>2026-04-06T08:38:44Z</time>
      </trkpt>
      <trkpt lat="50.450269002467394" lon="7.55237496457994">
        <ele>129.95628300000001</ele>
        <time>2026-04-06T08:38:50Z</time>
      </trkpt>
      <trkpt lat="50.450244024395943" lon="7.551835002377629">
        <ele>128.18419</ele>
        <time>2026-04-06T08:38:56Z</time>
      </trkpt>
      <trkpt lat="50.450249975547194" lon="7.551742969080806">
        <ele>127.881974</ele>
        <time>2026-04-06T08:38:57Z</time>
      </trkpt>
      <trkpt lat="50.450284006074071" lon="7.551468964666128">
        <ele>126.969739</ele>
        <time>2026-04-06T08:39:00Z</time>
      </trkpt>
      <trkpt lat="50.450310995802283" lon="7.550564976409078">
        <ele>124.005031</ele>
        <time>2026-04-06T08:39:10Z</time>
      </trkpt>
      <trkpt lat="50.450318958610296" lon="7.550478978082538">
        <ele>123.799942</ele>
        <time>2026-04-06T08:39:11Z</time>
      </trkpt>
      <trkpt lat="50.450429012998939" lon="7.550045968964696">
        <ele>122.723206</ele>
        <time>2026-04-06T08:39:16Z</time>
      </trkpt>
      <trkpt lat="50.450661024078727" lon="7.549703987315297">
        <ele>121.559456</ele>
        <time>2026-04-06T08:39:21Z</time>
      </trkpt>
      <trkpt lat="50.451468033716083" lon="7.548844004049897">
        <ele>118.02804999999999</ele>
        <time>2026-04-06T08:39:35Z</time>
      </trkpt>
      <trkpt lat="50.451874975115061" lon="7.548367995768786">
        <ele>117.067109</ele>
        <time>2026-04-06T08:39:42Z</time>
      </trkpt>
      <trkpt lat="50.453315991908312" lon="7.546677030622959">
        <ele>115.87150699999999</ele>
        <time>2026-04-06T08:40:20Z</time>
      </trkpt>
      <trkpt lat="50.453519001603127" lon="7.544434033334255">
        <ele>117.82266300000001</ele>
        <time>2026-04-06T08:41:01Z</time>
      </trkpt>
      <trkpt lat="50.45460001565516" lon="7.542310981079936">
        <ele>121.055657</ele>
        <time>2026-04-06T08:41:50Z</time>
      </trkpt>
      <trkpt lat="50.455342987552285" lon="7.540777008980513">
        <ele>122.701958</ele>
        <time>2026-04-06T08:42:24Z</time>
      </trkpt>
      <trkpt lat="50.455364026129246" lon="7.539807977154851">
        <ele>123.23557</ele>
        <time>2026-04-06T08:42:42Z</time>
      </trkpt>
      <trkpt lat="50.455171996727586" lon="7.539249993860722">
        <ele>120.793595</ele>
        <time>2026-04-06T08:42:53Z</time>
      </trkpt>
      <trkpt lat="50.454685008153319" lon="7.538630990311503">
        <ele>117.019362</ele>
        <time>2026-04-06T08:43:09Z</time>
      </trkpt>
      <trkpt lat="50.454268008470535" lon="7.538103014230728">
        <ele>113.79595999999999</ele>
        <time>2026-04-06T08:43:19Z</time>
      </trkpt>
      <trkpt lat="50.454138005152345" lon="7.537935040891171">
        <ele>112.783036</ele>
        <time>2026-04-06T08:43:22Z</time>
      </trkpt>
      <trkpt lat="50.453967014327645" lon="7.537569003179669">
        <ele>111.157383</ele>
        <time>2026-04-06T08:43:27Z</time>
      </trkpt>
      <trkpt lat="50.453938012942672" lon="7.537489039823413">
        <ele>110.83049099999999</ele>
        <time>2026-04-06T08:43:28Z</time>
      </trkpt>
      <trkpt lat="50.453860983252525" lon="7.537075979635119">
        <ele>109.292705</ele>
        <time>2026-04-06T08:43:33Z</time>
      </trkpt>
      <trkpt lat="50.453868024051189" lon="7.536695022135973">
        <ele>107.93922600000001</ele>
        <time>2026-04-06T08:43:38Z</time>
      </trkpt>
      <trkpt lat="50.453870035707951" lon="7.536642970517278">
        <ele>107.754239</ele>
        <time>2026-04-06T08:43:39Z</time>
      </trkpt>
      <trkpt lat="50.453857965767384" lon="7.536422023549676">
        <ele>106.966131</ele>
        <time>2026-04-06T08:44:09Z</time>
      </trkpt>
      <trkpt lat="50.453816978260875" lon="7.536050034686923">
        <ele>105.618667</ele>
        <time>2026-04-06T08:44:17Z</time>
      </trkpt>
      <trkpt lat="50.453655961900949" lon="7.535562962293625">
        <ele>103.64720699999999</ele>
        <time>2026-04-06T08:44:27Z</time>
      </trkpt>
      <trkpt lat="50.453509027138352" lon="7.53533698618412">
        <ele>102.57050099999999</ele>
        <time>2026-04-06T08:44:32Z</time>
      </trkpt>
      <trkpt lat="50.453251032158732" lon="7.535091983154416">
        <ele>101.79011199999999</ele>
        <time>2026-04-06T08:44:39Z</time>
      </trkpt>
      <trkpt lat="50.452303038910031" lon="7.534199981018901">
        <ele>98.922239000000005</ele>
        <time>2026-04-06T08:45:02Z</time>
      </trkpt>
      <trkpt lat="50.452271020039916" lon="7.534011974930763">
        <ele>98.599580000000003</ele>
        <time>2026-04-06T08:45:28Z</time>
      </trkpt>
      <trkpt lat="50.452276971191168" lon="7.533977022394538">
        <ele>98.539947999999995</ele>
        <time>2026-04-06T08:45:33Z</time>
      </trkpt>
      <trkpt lat="50.452543012797832" lon="7.532485965639353">
        <ele>98.254676000000003</ele>
        <time>2026-04-06T08:46:03Z</time>
      </trkpt>
      <trkpt lat="50.453192023560405" lon="7.529400000348687">
        <ele>97.604870000000005</ele>
        <time>2026-04-06T08:47:00Z</time>
      </trkpt>
      <trkpt lat="50.453212978318334" lon="7.529344009235501">
        <ele>97.565464000000006</ele>
        <time>2026-04-06T08:47:01Z</time>
      </trkpt>
      <trkpt lat="50.453328983858228" lon="7.528926003724337">
        <ele>97.288926000000004</ele>
        <time>2026-04-06T08:47:08Z</time>
      </trkpt>
      <trkpt lat="50.453759981319308" lon="7.526114964857698">
        <ele>94.145369000000002</ele>
        <time>2026-04-06T08:47:47Z</time>
      </trkpt>
      <trkpt lat="50.454131970182061" lon="7.522495994344354">
        <ele>91.852990000000005</ele>
        <time>2026-04-06T08:48:36Z</time>
      </trkpt>
      <trkpt lat="50.45438501983881" lon="7.5201450381428">
        <ele>93.408507999999998</ele>
        <time>2026-04-06T08:49:15Z</time>
      </trkpt>
      <trkpt lat="50.454642008990049" lon="7.519894000142813">
        <ele>93.586245000000005</ele>
        <time>2026-04-06T08:49:25Z</time>
      </trkpt>
      <trkpt lat="50.455195968970656" lon="7.519875979050994">
        <ele>93.770049</ele>
        <time>2026-04-06T08:49:51Z</time>
      </trkpt>
      <trkpt lat="50.455210972577333" lon="7.519617984071374">
        <ele>93.824365</ele>
        <time>2026-04-06T08:49:58Z</time>
      </trkpt>
      <trkpt lat="50.455298982560635" lon="7.51866202801466">
        <ele>94.025481999999997</ele>
        <time>2026-04-06T08:50:11Z</time>
      </trkpt>
      <trkpt lat="50.455304011702538" lon="7.518532024696469">
        <ele>94.052580000000006</ele>
        <time>2026-04-06T08:50:13Z</time>
      </trkpt>
      <trkpt lat="50.455318009480834" lon="7.518140003085136">
        <ele>94.030698999999998</ele>
        <time>2026-04-06T08:50:19Z</time>
      </trkpt>
      <trkpt lat="50.455425968393683" lon="7.517783017829061">
        <ele>93.840050000000005</ele>
        <time>2026-04-06T08:50:26Z</time>
      </trkpt>
      <trkpt lat="50.455509033054113" lon="7.517597023397684">
        <ele>93.732356999999993</ele>
        <time>2026-04-06T08:50:31Z</time>
      </trkpt>
      <trkpt lat="50.455228993669152" lon="7.517335005104542">
        <ele>93.478817000000006</ele>
        <time>2026-04-06T08:50:41Z</time>
      </trkpt>
      <trkpt lat="50.454879971221089" lon="7.517099976539612">
        <ele>93.195836</ele>
        <time>2026-04-06T08:50:51Z</time>
      </trkpt>
      <trkpt lat="50.454918025061488" lon="7.516614999622107">
        <ele>92.950372000000002</ele>
        <time>2026-04-06T08:51:00Z</time>
      </trkpt>
      <trkpt lat="50.455841040238738" lon="7.513752998784185">
        <ele>93.095763000000005</ele>
        <time>2026-04-06T08:51:52Z</time>
      </trkpt>
      <trkpt lat="50.456633968278766" lon="7.512319022789598">
        <ele>96.144431999999995</ele>
        <time>2026-04-06T08:52:26Z</time>
      </trkpt>
      <trkpt lat="50.456652995198965" lon="7.512250961735845">
        <ele>96.278513000000004</ele>
        <time>2026-04-06T08:52:29Z</time>
      </trkpt>
      <trkpt lat="50.456618964672089" lon="7.512245010584593">
        <ele>96.513925</ele>
        <time>2026-04-06T08:52:57Z</time>
      </trkpt>
      <trkpt lat="50.456871008500457" lon="7.511970000341535">
        <ele>97.333972000000003</ele>
        <time>2026-04-06T08:53:09Z</time>
      </trkpt>
      <trkpt lat="50.457291025668383" lon="7.511371029540896">
        <ele>101.054412</ele>
        <time>2026-04-06T08:53:30Z</time>
      </trkpt>
      <trkpt lat="50.457536028698087" lon="7.511025024577975">
        <ele>103.55031700000001</ele>
        <time>2026-04-06T08:53:45Z</time>
      </trkpt>
      <trkpt lat="50.457852026447654" lon="7.510639959946275">
        <ele>106.579145</ele>
        <time>2026-04-06T08:54:05Z</time>
      </trkpt>
      <trkpt lat="50.458093006163836" lon="7.51032798551023">
        <ele>108.94569199999999</ele>
        <time>2026-04-06T08:54:22Z</time>
      </trkpt>
      <trkpt lat="50.458287969231606" lon="7.510087005794048">
        <ele>110.82819000000001</ele>
        <time>2026-04-06T08:54:36Z</time>
      </trkpt>
      <trkpt lat="50.458477986976504" lon="7.509889025241137">
        <ele>112.700588</ele>
        <time>2026-04-06T08:54:49Z</time>
      </trkpt>
      <trkpt lat="50.458799013867974" lon="7.509604962542653">
        <ele>115.81537899999999</ele>
        <time>2026-04-06T08:55:09Z</time>
      </trkpt>
      <trkpt lat="50.45919899828732" lon="7.509371023625135">
        <ele>119.399039</ele>
        <time>2026-04-06T08:55:33Z</time>
      </trkpt>
      <trkpt lat="50.459231017157435" lon="7.509354008361697">
        <ele>119.68257</ele>
        <time>2026-04-06T08:55:35Z</time>
      </trkpt>
      <trkpt lat="50.459342999383807" lon="7.509292988106608">
        <ele>120.678314</ele>
        <time>2026-04-06T08:55:42Z</time>
      </trkpt>
      <trkpt lat="50.459597976878285" lon="7.509141024202108">
        <ele>122.968537</ele>
        <time>2026-04-06T08:55:58Z</time>
      </trkpt>
      <trkpt lat="50.45992998406291" lon="7.508929967880249">
        <ele>125.976231</ele>
        <time>2026-04-06T08:56:16Z</time>
      </trkpt>
      <trkpt lat="50.460779992863536" lon="7.508499976247549">
        <ele>128.810171</ele>
        <time>2026-04-06T08:56:55Z</time>
      </trkpt>
      <trkpt lat="50.460929023101926" lon="7.508816979825497">
        <ele>129.592061</ele>
        <time>2026-04-06T08:57:21Z</time>
      </trkpt>
      <trkpt lat="50.460936985909939" lon="7.508833995088935">
        <ele>129.63097200000001</ele>
        <time>2026-04-06T08:57:34Z</time>
      </trkpt>
      <trkpt lat="50.461130021139979" lon="7.508819997310638">
        <ele>130.21695</ele>
        <time>2026-04-06T08:57:48Z</time>
      </trkpt>
      <trkpt lat="50.461320960894227" lon="7.508794013410807">
        <ele>130.77758900000001</ele>
        <time>2026-04-06T08:57:57Z</time>
      </trkpt>
      <trkpt lat="50.461417017504573" lon="7.508763000369072">
        <ele>131.062422</ele>
        <time>2026-04-06T08:58:01Z</time>
      </trkpt>
      <trkpt lat="50.461569987237453" lon="7.507989015430212">
        <ele>132.74014500000001</ele>
        <time>2026-04-06T08:58:23Z</time>
      </trkpt>
      <trkpt lat="50.461694039404392" lon="7.507927995175123">
        <ele>133.055857</ele>
        <time>2026-04-06T08:58:27Z</time>
      </trkpt>
      <trkpt lat="50.462409015744925" lon="7.507723979651928">
        <ele>134.833607</ele>
        <time>2026-04-06T08:58:51Z</time>
      </trkpt>
      <trkpt lat="50.463105970993638" lon="7.507116962224245">
        <ele>136.33474000000001</ele>
        <time>2026-04-06T08:59:19Z</time>
      </trkpt>
      <trkpt lat="50.463561024516821" lon="7.506759976968169">
        <ele>136.93084300000001</ele>
        <time>2026-04-06T08:59:34Z</time>
      </trkpt>
      <trkpt lat="50.463685998693109" lon="7.506563002243638">
        <ele>137.13853599999999</ele>
        <time>2026-04-06T08:59:38Z</time>
      </trkpt>
      <trkpt lat="50.464305002242327" lon="7.506187995895743">
        <ele>137.92574200000001</ele>
        <time>2026-04-06T08:59:57Z</time>
      </trkpt>
      <trkpt lat="50.464415978640318" lon="7.506122030317783">
        <ele>137.983316</ele>
        <time>2026-04-06T09:00:51Z</time>
      </trkpt>
      <trkpt lat="50.465022996068001" lon="7.505588019266725">
        <ele>137.463562</ele>
        <time>2026-04-06T09:03:21Z</time>
      </trkpt>
      <trkpt lat="50.466235019266605" lon="7.504841024056077">
        <ele>136.34704099999999</ele>
        <time>2026-04-06T09:03:47Z</time>
      </trkpt>
      <trkpt lat="50.467630019411445" lon="7.504499964416027">
        <ele>134.47555399999999</ele>
        <time>2026-04-06T09:04:22Z</time>
      </trkpt>
      <trkpt lat="50.46779103577137" lon="7.504442967474461">
        <ele>134.09851900000001</ele>
        <time>2026-04-06T09:04:26Z</time>
      </trkpt>
      <trkpt lat="50.467926990240812" lon="7.504450008273125">
        <ele>133.16161299999999</ele>
        <time>2026-04-06T09:04:29Z</time>
      </trkpt>
      <trkpt lat="50.468057999387383" lon="7.504421006888151">
        <ele>132.25096300000001</ele>
        <time>2026-04-06T09:04:32Z</time>
      </trkpt>
      <trkpt lat="50.468444991856813" lon="7.504382031038404">
        <ele>129.58064899999999</ele>
        <time>2026-04-06T09:04:41Z</time>
      </trkpt>
      <trkpt lat="50.468913037329912" lon="7.504212968051434">
        <ele>126.263257</ele>
        <time>2026-04-06T09:04:56Z</time>
      </trkpt>
      <trkpt lat="50.469302041456103" lon="7.50364501029253">
        <ele>122.601292</ele>
        <time>2026-04-06T09:05:10Z</time>
      </trkpt>
      <trkpt lat="50.469552995637059" lon="7.50323798507452">
        <ele>120.368481</ele>
        <time>2026-04-06T09:05:18Z</time>
      </trkpt>
      <trkpt lat="50.469824988394976" lon="7.50287001952529">
        <ele>118.224642</ele>
        <time>2026-04-06T09:05:53Z</time>
      </trkpt>
      <trkpt lat="50.469845021143556" lon="7.502816040068865">
        <ele>117.98921</ele>
        <time>2026-04-06T09:05:55Z</time>
      </trkpt>
      <trkpt lat="50.469960020855069" lon="7.502696011215448">
        <ele>117.17049</ele>
        <time>2026-04-06T09:05:59Z</time>
      </trkpt>
      <trkpt lat="50.470453966408968" lon="7.502091005444527">
        <ele>113.459588</ele>
        <time>2026-04-06T09:06:09Z</time>
      </trkpt>
      <trkpt lat="50.471046986058354" lon="7.501339986920357">
        <ele>110.319795</ele>
        <time>2026-04-06T09:06:21Z</time>
      </trkpt>
      <trkpt lat="50.471124015748501" lon="7.501246025785804">
        <ele>110.08409899999999</ele>
        <time>2026-04-06T09:06:23Z</time>
      </trkpt>
      <trkpt lat="50.471376981586218" lon="7.501570992171764">
        <ele>109.22151700000001</ele>
        <time>2026-04-06T09:06:32Z</time>
      </trkpt>
      <trkpt lat="50.471890959888697" lon="7.503293976187706">
        <ele>106.01006099999999</ele>
        <time>2026-04-06T09:07:04Z</time>
      </trkpt>
      <trkpt lat="50.471958015114069" lon="7.503562029451132">
        <ele>105.39682999999999</ele>
        <time>2026-04-06T09:07:10Z</time>
      </trkpt>
      <trkpt lat="50.471978969871998" lon="7.503575021401048">
        <ele>105.32129999999999</ele>
        <time>2026-04-06T09:07:11Z</time>
      </trkpt>
      <trkpt lat="50.472268983721733" lon="7.503448035567999">
        <ele>104.31106699999999</ele>
        <time>2026-04-06T09:07:22Z</time>
      </trkpt>
      <trkpt lat="50.472348025068641" lon="7.503401013091207">
        <ele>104.02839400000001</ele>
        <time>2026-04-06T09:07:25Z</time>
      </trkpt>
      <trkpt lat="50.472895028069615" lon="7.503078980371356">
        <ele>102.07360199999999</ele>
        <time>2026-04-06T09:07:46Z</time>
      </trkpt>
      <trkpt lat="50.473624002188444" lon="7.502520997077227">
        <ele>100.968321</ele>
        <time>2026-04-06T09:08:23Z</time>
      </trkpt>
      <trkpt lat="50.473887026309967" lon="7.502975966781378">
        <ele>101.03254</ele>
        <time>2026-04-06T09:08:38Z</time>
      </trkpt>
      <trkpt lat="50.474935015663505" lon="7.503467984497547">
        <ele>101.450739</ele>
        <time>2026-04-06T09:09:16Z</time>
      </trkpt>
      <trkpt lat="50.474902996793389" lon="7.503789011389017">
        <ele>101.762305</ele>
        <time>2026-04-06T09:09:24Z</time>
      </trkpt>
      <trkpt lat="50.474789002910256" lon="7.506425958126783">
        <ele>104.53474900000001</ele>
        <time>2026-04-06T09:10:14Z</time>
      </trkpt>
      <trkpt lat="50.47509896568954" lon="7.508509028702974">
        <ele>107.670562</ele>
        <time>2026-04-06T09:10:58Z</time>
      </trkpt>
      <trkpt lat="50.475256964564323" lon="7.510349024087191">
        <ele>110.39751200000001</ele>
        <time>2026-04-06T09:11:32Z</time>
      </trkpt>
      <trkpt lat="50.475379005074501" lon="7.511128038167954">
        <ele>111.549774</ele>
        <time>2026-04-06T09:11:50Z</time>
      </trkpt>
      <trkpt lat="50.47535503283143" lon="7.511261980980635">
        <ele>111.76166499999999</ele>
        <time>2026-04-06T09:12:53Z</time>
      </trkpt>
      <trkpt lat="50.475352015346289" lon="7.51127103343606">
        <ele>111.777715</ele>
        <time>2026-04-06T09:19:02Z</time>
      </trkpt>
      <trkpt lat="50.475223017856479" lon="7.511622989550233">
        <ele>116.32685499999999</ele>
        <time>2026-04-06T09:19:16Z</time>
      </trkpt>
      <trkpt lat="50.475153028964996" lon="7.511928007006645">
        <ele>120.398599</ele>
        <time>2026-04-06T09:19:26Z</time>
      </trkpt>
      <trkpt lat="50.475114975124598" lon="7.511997995898128">
        <ele>121.570655</ele>
        <time>2026-04-06T09:19:35Z</time>
      </trkpt>
      <trkpt lat="50.475057978183031" lon="7.512008976191282">
        <ele>123.042428</ele>
        <time>2026-04-06T09:20:38Z</time>
      </trkpt>
      <trkpt lat="50.474983965978026" lon="7.512008976191282">
        <ele>124.538968</ele>
        <time>2026-04-06T09:21:16Z</time>
      </trkpt>
      <trkpt lat="50.474843988195062" lon="7.511971006169915">
        <ele>127.421054</ele>
        <time>2026-04-06T09:21:50Z</time>
      </trkpt>
      <trkpt lat="50.474602002650499" lon="7.511921972036362">
        <ele>132.221146</ele>
        <time>2026-04-06T09:22:23Z</time>
      </trkpt>
      <trkpt lat="50.474437968805432" lon="7.511929012835026">
        <ele>135.456762</ele>
        <time>2026-04-06T09:22:43Z</time>
      </trkpt>
      <trkpt lat="50.474265972152352" lon="7.511963965371251">
        <ele>138.91381200000001</ele>
        <time>2026-04-06T09:23:14Z</time>
      </trkpt>
      <trkpt lat="50.474258009344339" lon="7.511968994513154">
        <ele>139.08295799999999</ele>
        <time>2026-04-06T09:23:16Z</time>
      </trkpt>
      <trkpt lat="50.47408701851964" lon="7.512035965919495">
        <ele>142.61335600000001</ele>
        <time>2026-04-06T09:23:50Z</time>
      </trkpt>
      <trkpt lat="50.474073020741343" lon="7.512046024203301">
        <ele>142.91548700000001</ele>
        <time>2026-04-06T09:23:51Z</time>
      </trkpt>
      <trkpt lat="50.474004959687591" lon="7.512050969526172">
        <ele>144.25483600000001</ele>
        <time>2026-04-06T09:24:03Z</time>
      </trkpt>
      <trkpt lat="50.473875040188432" lon="7.512057004496455">
        <ele>146.81332</ele>
        <time>2026-04-06T09:24:18Z</time>
      </trkpt>
      <trkpt lat="50.473835980519652" lon="7.512081982567906">
        <ele>147.502869</ele>
        <time>2026-04-06T09:24:34Z</time>
      </trkpt>
      <trkpt lat="50.47374595887959" lon="7.512154988944531">
        <ele>148.87310500000001</ele>
        <time>2026-04-06T09:24:43Z</time>
      </trkpt>
      <trkpt lat="50.473524006083608" lon="7.512289015576243">
        <ele>152.09666799999999</ele>
        <time>2026-04-06T09:25:08Z</time>
      </trkpt>
      <trkpt lat="50.473271962255239" lon="7.512457994744182">
        <ele>155.79046299999999</ele>
        <time>2026-04-06T09:25:36Z</time>
      </trkpt>
      <trkpt lat="50.473158974200487" lon="7.512495964765549">
        <ele>157.34186299999999</ele>
        <time>2026-04-06T09:25:48Z</time>
      </trkpt>
      <trkpt lat="50.473059983924031" lon="7.512563019990921">
        <ele>158.92134100000001</ele>
        <time>2026-04-06T09:26:25Z</time>
      </trkpt>
      <trkpt lat="50.472848005592823" lon="7.512780027464032">
        <ele>162.35226800000001</ele>
        <time>2026-04-06T09:26:48Z</time>
      </trkpt>
      <trkpt lat="50.472758989781141" lon="7.512850016355515">
        <ele>163.696245</ele>
        <time>2026-04-06T09:26:55Z</time>
      </trkpt>
      <trkpt lat="50.472743986174464" lon="7.512852028012276">
        <ele>163.89756800000001</ele>
        <time>2026-04-06T09:26:56Z</time>
      </trkpt>
      <trkpt lat="50.472485991194844" lon="7.512935008853674">
        <ele>167.433988</ele>
        <time>2026-04-06T09:27:16Z</time>
      </trkpt>
      <trkpt lat="50.47239001840353" lon="7.513202978298068">
        <ele>170.50032400000001</ele>
        <time>2026-04-06T09:28:03Z</time>
      </trkpt>
      <trkpt lat="50.472423965111375" lon="7.513255029916763">
        <ele>171.13486599999999</ele>
        <time>2026-04-06T09:28:08Z</time>
      </trkpt>
      <trkpt lat="50.472483979538083" lon="7.51333499327302">
        <ele>171.87889699999999</ele>
        <time>2026-04-06T09:28:16Z</time>
      </trkpt>
      <trkpt lat="50.472767036408186" lon="7.513518976047635">
        <ele>174.77410699999999</ele>
        <time>2026-04-06T09:28:48Z</time>
      </trkpt>
      <trkpt lat="50.472948001697659" lon="7.513976041227579">
        <ele>177.886708</ele>
        <time>2026-04-06T09:29:29Z</time>
      </trkpt>
      <trkpt lat="50.473115975037217" lon="7.514229007065296">
        <ele>179.98240100000001</ele>
        <time>2026-04-06T09:29:42Z</time>
      </trkpt>
      <trkpt lat="50.473216976970434" lon="7.514438973739743">
        <ele>181.48745700000001</ele>
        <time>2026-04-06T09:29:53Z</time>
      </trkpt>
      <trkpt lat="50.47322703525424" lon="7.514458000659943">
        <ele>181.62810300000001</ele>
        <time>2026-04-06T09:29:54Z</time>
      </trkpt>
      <trkpt lat="50.473345974460244" lon="7.514723958447576">
        <ele>183.51646600000001</ele>
        <time>2026-04-06T09:30:20Z</time>
      </trkpt>
      <trkpt lat="50.473600029945374" lon="7.515179011970758">
        <ele>186.983418</ele>
        <time>2026-04-06T09:30:55Z</time>
      </trkpt>
      <trkpt lat="50.473759034648538" lon="7.515672035515308">
        <ele>190.50341800000001</ele>
        <time>2026-04-06T09:31:32Z</time>
      </trkpt>
      <trkpt lat="50.473788036033511" lon="7.5157639849931">
        <ele>191.15777600000001</ele>
        <time>2026-04-06T09:31:37Z</time>
      </trkpt>
      <trkpt lat="50.473813014104962" lon="7.516253991052508">
        <ele>194.387293</ele>
        <time>2026-04-06T09:32:10Z</time>
      </trkpt>
      <trkpt lat="50.473813014104962" lon="7.516275029629469">
        <ele>194.521131</ele>
        <time>2026-04-06T09:32:11Z</time>
      </trkpt>
      <trkpt lat="50.473710000514984" lon="7.516572000458837">
        <ele>196.68969999999999</ele>
        <time>2026-04-06T09:32:32Z</time>
      </trkpt>
      <trkpt lat="50.473640011623502" lon="7.516898978501558">
        <ele>198.90275199999999</ele>
        <time>2026-04-06T09:32:55Z</time>
      </trkpt>
      <trkpt lat="50.473606986925006" lon="7.517001992091537">
        <ele>199.64354800000001</ele>
        <time>2026-04-06T09:33:04Z</time>
      </trkpt>
      <trkpt lat="50.47353096306324" lon="7.517371969297528">
        <ele>202.15121199999999</ele>
        <time>2026-04-06T09:33:29Z</time>
      </trkpt>
      <trkpt lat="50.473516965284944" lon="7.517432989552617">
        <ele>202.56448800000001</ele>
        <time>2026-04-06T09:33:33Z</time>
      </trkpt>
      <trkpt lat="50.473400959745049" lon="7.517972029745579">
        <ele>205.84159099999999</ele>
        <time>2026-04-06T09:34:13Z</time>
      </trkpt>
      <trkpt lat="50.473366007208824" lon="7.518117036670446">
        <ele>206.39912899999999</ele>
        <time>2026-04-06T09:34:24Z</time>
      </trkpt>
      <trkpt lat="50.47333599999547" lon="7.51823203638196">
        <ele>206.849558</ele>
        <time>2026-04-06T09:34:31Z</time>
      </trkpt>
      <trkpt lat="50.473153023049235" lon="7.519063018262386">
        <ele>210.01704899999999</ele>
        <time>2026-04-06T09:35:12Z</time>
      </trkpt>
      <trkpt lat="50.473135001957417" lon="7.519979998469353">
        <ele>213.332852</ele>
        <time>2026-04-06T09:35:42Z</time>
      </trkpt>
      <trkpt lat="50.473212031647563" lon="7.520973002538085">
        <ele>216.34676300000001</ele>
        <time>2026-04-06T09:36:14Z</time>
      </trkpt>
      <trkpt lat="50.473319990560412" lon="7.52197396941483">
        <ele>218.529008</ele>
        <time>2026-04-06T09:36:53Z</time>
      </trkpt>
      <trkpt lat="50.473400959745049" lon="7.522880975157023">
        <ele>220.51145600000001</ele>
        <time>2026-04-06T09:37:26Z</time>
      </trkpt>
      <trkpt lat="50.47292796894908" lon="7.523655965924263">
        <ele>220.27915100000001</ele>
        <time>2026-04-06T09:37:54Z</time>
      </trkpt>
      <trkpt lat="50.472697969526052" lon="7.524687023833394">
        <ele>218.20813000000001</ele>
        <time>2026-04-06T09:38:31Z</time>
      </trkpt>
      <trkpt lat="50.472681038081646" lon="7.524746032431722">
        <ele>218.08601200000001</ele>
        <time>2026-04-06T09:38:32Z</time>
      </trkpt>
      <trkpt lat="50.472554974257946" lon="7.524920962750912">
        <ele>217.57661100000001</ele>
        <time>2026-04-06T09:38:36Z</time>
      </trkpt>
      <trkpt lat="50.472482973709702" lon="7.524976031854749">
        <ele>217.339427</ele>
        <time>2026-04-06T09:38:38Z</time>
      </trkpt>
      <trkpt lat="50.472482973709702" lon="7.525148028507829">
        <ele>216.97284999999999</ele>
        <time>2026-04-06T09:38:56Z</time>
      </trkpt>
      <trkpt lat="50.472485991194844" lon="7.525151968002319">
        <ele>216.96119300000001</ele>
        <time>2026-04-06T09:39:04Z</time>
      </trkpt>
      <trkpt lat="50.472526978701353" lon="7.525166971608996">
        <ele>216.83411000000001</ele>
        <time>2026-04-06T09:39:08Z</time>
      </trkpt>
      <trkpt lat="50.472633009776473" lon="7.525188010185957">
        <ele>216.39298299999999</ele>
        <time>2026-04-06T09:40:08Z</time>
      </trkpt>
      <trkpt lat="50.472634015604854" lon="7.52523603849113">
        <ele>220.374201</ele>
        <time>2026-04-06T09:40:51Z</time>
      </trkpt>
      <trkpt lat="50.472704004496336" lon="7.525030011311173">
        <ele>221.60813300000001</ele>
        <time>2026-04-06T09:41:20Z</time>
      </trkpt>
      <trkpt lat="50.472974991425872" lon="7.525078961625695">
        <ele>223.480695</ele>
        <time>2026-04-06T09:41:42Z</time>
      </trkpt>
      <trkpt lat="50.473224017769098" lon="7.525090025737882">
        <ele>225.20489000000001</ele>
        <time>2026-04-06T09:42:03Z</time>
      </trkpt>
      <trkpt lat="50.47327296808362" lon="7.525095976889134">
        <ele>225.531758</ele>
        <time>2026-04-06T09:42:07Z</time>
      </trkpt>
      <trkpt lat="50.473491987213492" lon="7.524983994662762">
        <ele>227.07416900000001</ele>
        <time>2026-04-06T09:42:25Z</time>
      </trkpt>
      <trkpt lat="50.473877973854542" lon="7.524710996076465">
        <ele>230.90673799999999</ele>
        <time>2026-04-06T09:42:57Z</time>
      </trkpt>
      <trkpt lat="50.474151978269219" lon="7.524558026343584">
        <ele>233.98793499999999</ele>
        <time>2026-04-06T09:43:16Z</time>
      </trkpt>
      <trkpt lat="50.474271001294255" lon="7.524504968896508">
        <ele>235.29969299999999</ele>
        <time>2026-04-06T09:43:23Z</time>
      </trkpt>
      <trkpt lat="50.474551962688565" lon="7.524503041058779">
        <ele>238.27997300000001</ele>
        <time>2026-04-06T09:43:37Z</time>
      </trkpt>
      <trkpt lat="50.474837031215429" lon="7.524662967771292">
        <ele>241.47348500000001</ele>
        <time>2026-04-06T09:43:57Z</time>
      </trkpt>
      <trkpt lat="50.474952030926943" lon="7.524750977754593">
        <ele>242.82925399999999</ele>
        <time>2026-04-06T09:44:05Z</time>
      </trkpt>
      <trkpt lat="50.475067030638456" lon="7.524817027151585">
        <ele>244.12504999999999</ele>
        <time>2026-04-06T09:44:13Z</time>
      </trkpt>
      <trkpt lat="50.47518303617835" lon="7.524878969416022">
        <ele>245.42130399999999</ele>
        <time>2026-04-06T09:44:21Z</time>
      </trkpt>
      <trkpt lat="50.475385962054133" lon="7.524996986612678">
        <ele>248.084464</ele>
        <time>2026-04-06T09:44:58Z</time>
      </trkpt>
      <trkpt lat="50.47557296231389" lon="7.525062030181289">
        <ele>251.43480199999999</ele>
        <time>2026-04-06T09:45:31Z</time>
      </trkpt>
      <trkpt lat="50.475691985338926" lon="7.525102011859417">
        <ele>253.546595</ele>
        <time>2026-04-06T09:45:42Z</time>
      </trkpt>
      <trkpt lat="50.475751999765635" lon="7.525102011859417">
        <ele>254.584766</ele>
        <time>2026-04-06T09:45:50Z</time>
      </trkpt>
      <trkpt lat="50.475859958678484" lon="7.525119027122855">
        <ele>256.46593899999999</ele>
        <time>2026-04-06T09:46:27Z</time>
      </trkpt>
      <trkpt lat="50.475929025560617" lon="7.525102011859417">
        <ele>257.677505</ele>
        <time>2026-04-06T09:46:33Z</time>
      </trkpt>
      <trkpt lat="50.476101022213697" lon="7.525046020746231">
        <ele>260.75115199999999</ele>
        <time>2026-04-06T09:46:52Z</time>
      </trkpt>
      <trkpt lat="50.476114014163613" lon="7.525041997432709">
        <ele>260.98036100000002</ele>
        <time>2026-04-06T09:46:58Z</time>
      </trkpt>
      <trkpt lat="50.476189032196999" lon="7.524991035461426">
        <ele>262.39547299999998</ele>
        <time>2026-04-06T09:47:06Z</time>
      </trkpt>
      <trkpt lat="50.476259021088481" lon="7.524932026863098">
        <ele>263.77016200000003</ele>
        <time>2026-04-06T09:47:14Z</time>
      </trkpt>
      <trkpt lat="50.476307971403003" lon="7.524893973022699">
        <ele>264.71563700000002</ele>
        <time>2026-04-06T09:47:21Z</time>
      </trkpt>
      <trkpt lat="50.476361028850079" lon="7.524815015494824">
        <ele>265.99789600000003</ele>
        <time>2026-04-06T09:47:30Z</time>
      </trkpt>
      <trkpt lat="50.476439986377954" lon="7.524790037423372">
        <ele>267.424058</ele>
        <time>2026-04-06T09:47:43Z</time>
      </trkpt>
      <trkpt lat="50.476611983031034" lon="7.524731028825045">
        <ele>270.51692200000002</ele>
        <time>2026-04-06T09:48:15Z</time>
      </trkpt>
      <trkpt lat="50.476777022704482" lon="7.524736979976296">
        <ele>273.408952</ele>
        <time>2026-04-06T09:48:43Z</time>
      </trkpt>
      <trkpt lat="50.476980032399297" lon="7.524762041866779">
        <ele>276.95219500000002</ele>
        <time>2026-04-06T09:49:04Z</time>
      </trkpt>
      <trkpt lat="50.477082962170243" lon="7.524772016331554">
        <ele>278.63874499999997</ele>
        <time>2026-04-06T09:49:14Z</time>
      </trkpt>
      <trkpt lat="50.477124033495784" lon="7.524774027988315">
        <ele>279.21738800000003</ele>
        <time>2026-04-06T09:49:25Z</time>
      </trkpt>
      <trkpt lat="50.47720399685204" lon="7.52467998303473">
        <ele>280.677255</ele>
        <time>2026-04-06T09:50:04Z</time>
      </trkpt>
      <trkpt lat="50.47722402960062" lon="7.524584010243416">
        <ele>281.58779099999998</ele>
        <time>2026-04-06T09:50:16Z</time>
      </trkpt>
      <trkpt lat="50.477222017943859" lon="7.524431962519884">
        <ele>282.93424199999998</ele>
        <time>2026-04-06T09:50:25Z</time>
      </trkpt>
      <trkpt lat="50.477221012115479" lon="7.524400027468801">
        <ele>283.21701999999999</ele>
        <time>2026-04-06T09:50:32Z</time>
      </trkpt>
      <trkpt lat="50.477205002680421" lon="7.524172961711884">
        <ele>285.26953900000001</ele>
        <time>2026-04-06T09:50:48Z</time>
      </trkpt>
      <trkpt lat="50.477173989638686" lon="7.523940028622747">
        <ele>287.37531100000001</ele>
        <time>2026-04-06T09:51:05Z</time>
      </trkpt>
      <trkpt lat="50.477152029052377" lon="7.52354096621275">
        <ele>291.031228</ele>
        <time>2026-04-06T09:51:39Z</time>
      </trkpt>
      <trkpt lat="50.477252025157213" lon="7.523327982053161">
        <ele>293.39654100000001</ele>
        <time>2026-04-06T09:52:20Z</time>
      </trkpt>
      <trkpt lat="50.477368030697107" lon="7.523155985400081">
        <ele>295.61118099999999</ele>
        <time>2026-04-06T09:52:37Z</time>
      </trkpt>
      <trkpt lat="50.477470038458705" lon="7.522921962663531">
        <ele>298.11725000000001</ele>
        <time>2026-04-06T09:52:58Z</time>
      </trkpt>
      <trkpt lat="50.477587971836329" lon="7.522515021264553">
        <ele>302.059954</ele>
        <time>2026-04-06T09:53:15Z</time>
      </trkpt>
      <trkpt lat="50.477658966556191" lon="7.522404966875911">
        <ele>303.32205299999998</ele>
        <time>2026-04-06T09:53:20Z</time>
      </trkpt>
      <trkpt lat="50.477747982367873" lon="7.52240002155304">
        <ele>304.13820199999998</ele>
        <time>2026-04-06T09:53:59Z</time>
      </trkpt>
      <trkpt lat="50.477789975702763" lon="7.52248702570796">
        <ele>304.75403499999999</ele>
        <time>2026-04-06T09:54:46Z</time>
      </trkpt>
      <trkpt lat="50.477871028706431" lon="7.522792965173721">
        <ele>306.56211999999999</ele>
        <time>2026-04-06T09:55:17Z</time>
      </trkpt>
      <trkpt lat="50.477906987071037" lon="7.522889021784067">
        <ele>307.17182000000003</ele>
        <time>2026-04-06T09:55:26Z</time>
      </trkpt>
      <trkpt lat="50.477898018434644" lon="7.523080967366695">
        <ele>308.25777499999998</ele>
        <time>2026-04-06T09:55:52Z</time>
      </trkpt>
      <trkpt lat="50.477873962372541" lon="7.52319797873497">
        <ele>308.95377999999999</ele>
        <time>2026-04-06T09:56:02Z</time>
      </trkpt>
      <trkpt lat="50.477831969037652" lon="7.523715980350971">
        <ele>312.14748100000003</ele>
        <time>2026-04-06T09:56:47Z</time>
      </trkpt>
      <trkpt lat="50.477811014279723" lon="7.523717992007732">
        <ele>312.35224499999998</ele>
        <time>2026-04-06T10:06:46Z</time>
      </trkpt>
      <trkpt lat="50.47786801122129" lon="7.523699970915914">
        <ele>312.85188299999999</ele>
        <time>2026-04-06T10:06:57Z</time>
      </trkpt>
      <trkpt lat="50.47797697596252" lon="7.523568961769342">
        <ele>314.079973</ele>
        <time>2026-04-06T10:07:11Z</time>
      </trkpt>
      <trkpt lat="50.47834200784564" lon="7.523493021726608">
        <ele>317.228027</ele>
        <time>2026-04-06T10:07:40Z</time>
      </trkpt>
      <trkpt lat="50.4785340372473" lon="7.523586982861161">
        <ele>318.75626999999997</ele>
        <time>2026-04-06T10:07:54Z</time>
      </trkpt>
      <trkpt lat="50.478904014453292" lon="7.523793010041118">
        <ele>320.78153500000002</ele>
        <time>2026-04-06T10:08:17Z</time>
      </trkpt>
      <trkpt lat="50.479251025244594" lon="7.524087969213724">
        <ele>322.837603</ele>
        <time>2026-04-06T10:08:38Z</time>
      </trkpt>
      <trkpt lat="50.479512037709355" lon="7.524298019707203">
        <ele>324.35244599999999</ele>
        <time>2026-04-06T10:08:54Z</time>
      </trkpt>
      <trkpt lat="50.479637011885643" lon="7.524456018581986">
        <ele>325.22568799999999</ele>
        <time>2026-04-06T10:09:13Z</time>
      </trkpt>
      <trkpt lat="50.479358984157443" lon="7.524931021034718">
        <ele>327.36725200000001</ele>
        <time>2026-04-06T10:09:46Z</time>
      </trkpt>
      <trkpt lat="50.479401983320713" lon="7.525073010474443">
        <ele>327.77888200000001</ele>
        <time>2026-04-06T10:09:52Z</time>
      </trkpt>
      <trkpt lat="50.47945898026228" lon="7.525452962145209">
        <ele>328.55040700000001</ele>
        <time>2026-04-06T10:10:21Z</time>
      </trkpt>
      <trkpt lat="50.479557970538735" lon="7.526065008714795">
        <ele>329.73946100000001</ele>
        <time>2026-04-06T10:12:31Z</time>
      </trkpt>
      <trkpt lat="50.479503991082311" lon="7.526601031422615">
        <ele>330.80201899999997</ele>
        <time>2026-04-06T10:12:52Z</time>
      </trkpt>
      <trkpt lat="50.479499967768788" lon="7.526657022535801">
        <ele>330.90741100000002</ele>
        <time>2026-04-06T10:12:54Z</time>
      </trkpt>
      <trkpt lat="50.479153040796518" lon="7.527580037713051">
        <ele>332.92452400000002</ele>
        <time>2026-04-06T10:13:30Z</time>
      </trkpt>
      <trkpt lat="50.479182964190841" lon="7.527954038232565">
        <ele>333.89367900000002</ele>
        <time>2026-04-06T10:13:57Z</time>
      </trkpt>
      <trkpt lat="50.479402989149094" lon="7.528212033212185">
        <ele>334.86206399999998</ele>
        <time>2026-04-06T10:14:12Z</time>
      </trkpt>
      <trkpt lat="50.480087958276272" lon="7.528827013447881">
        <ele>337.64015899999998</ele>
        <time>2026-04-06T10:14:51Z</time>
      </trkpt>
      <trkpt lat="50.480194995179772" lon="7.529150974005461">
        <ele>338.476429</ele>
        <time>2026-04-06T10:15:28Z</time>
      </trkpt>
      <trkpt lat="50.480213016271591" lon="7.529264967888594">
        <ele>338.739487</ele>
        <time>2026-04-06T10:15:33Z</time>
      </trkpt>
      <trkpt lat="50.480306977406144" lon="7.529380973428488">
        <ele>339.159291</ele>
        <time>2026-04-06T10:15:39Z</time>
      </trkpt>
      <trkpt lat="50.480642002075911" lon="7.529628993943334">
        <ele>340.651251</ele>
        <time>2026-04-06T10:15:56Z</time>
      </trkpt>
      <trkpt lat="50.48087602481246" lon="7.529762014746666">
        <ele>341.67065600000001</ele>
        <time>2026-04-06T10:16:15Z</time>
      </trkpt>
      <trkpt lat="50.481100995093584" lon="7.529926970601082">
        <ele>342.72708799999998</ele>
        <time>2026-04-06T10:16:46Z</time>
      </trkpt>
      <trkpt lat="50.481257988139987" lon="7.53050004132092">
        <ele>344.32656100000003</ele>
        <time>2026-04-06T10:17:31Z</time>
      </trkpt>
      <trkpt lat="50.481460997834802" lon="7.53106196410954">
        <ele>345.98493200000001</ele>
        <time>2026-04-06T10:18:09Z</time>
      </trkpt>
      <trkpt lat="50.481501985341311" lon="7.531308978796005">
        <ele>346.697451</ele>
        <time>2026-04-06T10:18:32Z</time>
      </trkpt>
      <trkpt lat="50.481511037796736" lon="7.531364969909191">
        <ele>346.87622699999997</ele>
        <time>2026-04-06T10:18:36Z</time>
      </trkpt>
      <trkpt lat="50.481658978387713" lon="7.531731007620692">
        <ele>348.19601799999998</ele>
        <time>2026-04-06T10:18:53Z</time>
      </trkpt>
      <trkpt lat="50.481744976714253" lon="7.531906021758914">
        <ele>348.86603200000002</ele>
        <time>2026-04-06T10:19:05Z</time>
      </trkpt>
      <trkpt lat="50.481942035257816" lon="7.532518990337849">
        <ele>350.94067999999999</ele>
        <time>2026-04-06T10:19:25Z</time>
      </trkpt>
      <trkpt lat="50.482109002768993" lon="7.532989969477058">
        <ele>352.59444200000002</ele>
        <time>2026-04-06T10:19:42Z</time>
      </trkpt>
      <trkpt lat="50.482135992497206" lon="7.533140005543828">
        <ele>353.06218899999999</ele>
        <time>2026-04-06T10:19:48Z</time>
      </trkpt>
      <trkpt lat="50.482256021350622" lon="7.533502019941807">
        <ele>354.29977700000001</ele>
        <time>2026-04-06T10:20:16Z</time>
      </trkpt>
      <trkpt lat="50.4823590349406" lon="7.533984985202551">
        <ele>355.62755800000002</ele>
        <time>2026-04-06T10:21:05Z</time>
      </trkpt>
      <trkpt lat="50.482395999133587" lon="7.534052040427923">
        <ele>355.84478300000001</ele>
        <time>2026-04-06T10:21:08Z</time>
      </trkpt>
      <trkpt lat="50.482484009116888" lon="7.534302994608879">
        <ele>356.52968700000002</ele>
        <time>2026-04-06T10:21:19Z</time>
      </trkpt>
      <trkpt lat="50.482479985803366" lon="7.534388992935419">
        <ele>356.74726800000002</ele>
        <time>2026-04-06T10:21:23Z</time>
      </trkpt>
      <trkpt lat="50.482503036037087" lon="7.534522013738751">
        <ele>357.07553100000001</ele>
        <time>2026-04-06T10:21:29Z</time>
      </trkpt>
      <trkpt lat="50.482520973309875" lon="7.534822002053261">
        <ele>357.81208400000003</ele>
        <time>2026-04-06T10:21:43Z</time>
      </trkpt>
      <trkpt lat="50.48253396525979" lon="7.535390965640545">
        <ele>359.169442</ele>
        <time>2026-04-06T10:22:01Z</time>
      </trkpt>
      <trkpt lat="50.482558021321893" lon="7.535926988348365">
        <ele>360.50562500000001</ele>
        <time>2026-04-06T10:22:18Z</time>
      </trkpt>
      <trkpt lat="50.482601020485163" lon="7.536485977470875">
        <ele>361.72235899999998</ele>
        <time>2026-04-06T10:22:56Z</time>
      </trkpt>
      <trkpt lat="50.482666986063123" lon="7.536895014345646">
        <ele>362.22953100000001</ele>
        <time>2026-04-06T10:23:26Z</time>
      </trkpt>
      <trkpt lat="50.482706967741251" lon="7.53696802072227">
        <ele>362.34338600000001</ele>
        <time>2026-04-06T10:23:30Z</time>
      </trkpt>
      <trkpt lat="50.48272498883307" lon="7.537006996572018">
        <ele>362.40084200000001</ele>
        <time>2026-04-06T10:23:32Z</time>
      </trkpt>
      <trkpt lat="50.482690958306193" lon="7.537098024040461">
        <ele>362.53648399999997</ele>
        <time>2026-04-06T10:23:44Z</time>
      </trkpt>
      <trkpt lat="50.482451990246773" lon="7.537428019568324">
        <ele>363.129752</ele>
        <time>2026-04-06T10:24:00Z</time>
      </trkpt>
      <trkpt lat="50.482348976656795" lon="7.53759297542274">
        <ele>363.40671500000002</ele>
        <time>2026-04-06T10:24:18Z</time>
      </trkpt>
      <trkpt lat="50.482343025505543" lon="7.537632035091519">
        <ele>363.57899500000002</ele>
        <time>2026-04-06T10:25:05Z</time>
      </trkpt>
      <trkpt lat="50.482354005798697" lon="7.537556011229754">
        <ele>363.68903899999998</ele>
        <time>2026-04-06T10:25:11Z</time>
      </trkpt>
      <trkpt lat="50.482241017743945" lon="7.537720967084169">
        <ele>363.97900600000003</ele>
        <time>2026-04-06T10:25:19Z</time>
      </trkpt>
      <trkpt lat="50.481914039701223" lon="7.538866018876433">
        <ele>364.10242699999998</ele>
        <time>2026-04-06T10:25:47Z</time>
      </trkpt>
      <trkpt lat="50.481804991140962" lon="7.539263991639018">
        <ele>363.39930299999997</ele>
        <time>2026-04-06T10:25:54Z</time>
      </trkpt>
      <trkpt lat="50.481724021956325" lon="7.539565991610289">
        <ele>362.86746499999998</ele>
        <time>2026-04-06T10:25:59Z</time>
      </trkpt>
      <trkpt lat="50.481641963124275" lon="7.539798002690077">
        <ele>362.43687999999997</ele>
        <time>2026-04-06T10:26:03Z</time>
      </trkpt>
      <trkpt lat="50.481433002278209" lon="7.540296977385879">
        <ele>361.46765900000003</ele>
        <time>2026-04-06T10:26:12Z</time>
      </trkpt>
      <trkpt lat="50.481108035892248" lon="7.540797041729093">
        <ele>360.29915399999999</ele>
        <time>2026-04-06T10:26:24Z</time>
      </trkpt>
      <trkpt lat="50.480792038142681" lon="7.541044978424907">
        <ele>359.20894700000002</ele>
        <time>2026-04-06T10:26:32Z</time>
      </trkpt>
      <trkpt lat="50.479799034073949" lon="7.541581001132727">
        <ele>355.96972899999997</ele>
        <time>2026-04-06T10:26:50Z</time>
      </trkpt>
      <trkpt lat="50.479697026312351" lon="7.54163196310401">
        <ele>355.639636</ele>
        <time>2026-04-06T10:26:52Z</time>
      </trkpt>
      <trkpt lat="50.479080034419894" lon="7.542334031313658">
        <ele>353.69667700000002</ele>
        <time>2026-04-06T10:27:07Z</time>
      </trkpt>
      <trkpt lat="50.478951036930084" lon="7.542682969942689">
        <ele>353.13506000000001</ele>
        <time>2026-04-06T10:27:13Z</time>
      </trkpt>
      <trkpt lat="50.478583993390203" lon="7.544066989794374">
        <ele>351.05126799999999</ele>
        <time>2026-04-06T10:27:36Z</time>
      </trkpt>
      <trkpt lat="50.478261960670352" lon="7.544527994468808">
        <ele>350.543069</ele>
        <time>2026-04-06T10:27:46Z</time>
      </trkpt>
      <trkpt lat="50.476719019934535" lon="7.546413000673056">
        <ele>348.56309499999998</ele>
        <time>2026-04-06T10:28:38Z</time>
      </trkpt>
      <trkpt lat="50.475922990590334" lon="7.547365017235279">
        <ele>347.11522100000002</ele>
        <time>2026-04-06T10:28:59Z</time>
      </trkpt>
      <trkpt lat="50.475709000602365" lon="7.547593005001545">
        <ele>346.74114900000001</ele>
        <time>2026-04-06T10:29:04Z</time>
      </trkpt>
      <trkpt lat="50.47509997151792" lon="7.548452988266945">
        <ele>346.18526300000002</ele>
        <time>2026-04-06T10:29:26Z</time>
      </trkpt>
      <trkpt lat="50.474992012605071" lon="7.548599001020193">
        <ele>346.08028000000002</ele>
        <time>2026-04-06T10:30:12Z</time>
      </trkpt>
      <trkpt lat="50.475006010383368" lon="7.548581985756755">
        <ele>346.06858999999997</ele>
        <time>2026-04-06T10:30:46Z</time>
      </trkpt>
      <trkpt lat="50.474929986521602" lon="7.54910996183753">
        <ele>345.83051</ele>
        <time>2026-04-06T10:31:01Z</time>
      </trkpt>
      <trkpt lat="50.47466897405684" lon="7.551926029846072">
        <ele>344.467354</ele>
        <time>2026-04-06T10:31:51Z</time>
      </trkpt>
      <trkpt lat="50.47466604039073" lon="7.554021002724767">
        <ele>344.96784700000001</ele>
        <time>2026-04-06T10:32:31Z</time>
      </trkpt>
      <trkpt lat="50.474623963236809" lon="7.556700026616454">
        <ele>346.52463399999999</ele>
        <time>2026-04-06T10:33:19Z</time>
      </trkpt>
      <trkpt lat="50.474547017365694" lon="7.557426989078522">
        <ele>346.934482</ele>
        <time>2026-04-06T10:33:33Z</time>
      </trkpt>
      <trkpt lat="50.473953997716308" lon="7.559502013027668">
        <ele>347.98428000000001</ele>
        <time>2026-04-06T10:34:11Z</time>
      </trkpt>
      <trkpt lat="50.473676975816488" lon="7.562032006680965">
        <ele>347.30171200000001</ele>
        <time>2026-04-06T10:34:54Z</time>
      </trkpt>
      <trkpt lat="50.474091041833162" lon="7.564155980944634">
        <ele>343.92700500000001</ele>
        <time>2026-04-06T10:35:27Z</time>
      </trkpt>
      <trkpt lat="50.474104033783078" lon="7.564219012856484">
        <ele>343.742278</ele>
        <time>2026-04-06T10:35:28Z</time>
      </trkpt>
      <trkpt lat="50.473741013556719" lon="7.565016970038414">
        <ele>340.593797</ele>
        <time>2026-04-06T10:35:44Z</time>
      </trkpt>
      <trkpt lat="50.473542027175426" lon="7.565056029707193">
        <ele>339.71352999999999</ele>
        <time>2026-04-06T10:35:48Z</time>
      </trkpt>
      <trkpt lat="50.47348796389997" lon="7.565053012222052">
        <ele>339.47672</ele>
        <time>2026-04-06T10:35:49Z</time>
      </trkpt>
      <trkpt lat="50.473002986982465" lon="7.565069021657109">
        <ele>337.24832600000002</ele>
        <time>2026-04-06T10:35:59Z</time>
      </trkpt>
      <trkpt lat="50.472954036667943" lon="7.565075978636742">
        <ele>336.97864199999998</ele>
        <time>2026-04-06T10:36:00Z</time>
      </trkpt>
      <trkpt lat="50.472678020596504" lon="7.565041026100516">
        <ele>335.45675499999999</ele>
        <time>2026-04-06T10:36:06Z</time>
      </trkpt>
      <trkpt lat="50.472116013988853" lon="7.564909011125565">
        <ele>332.34180800000001</ele>
        <time>2026-04-06T10:36:16Z</time>
      </trkpt>
      <trkpt lat="50.471761962398887" lon="7.564784958958626">
        <ele>330.352689</ele>
        <time>2026-04-06T10:36:23Z</time>
      </trkpt>
      <trkpt lat="50.471648974344134" lon="7.564721005037427">
        <ele>329.69428699999997</ele>
        <time>2026-04-06T10:36:26Z</time>
      </trkpt>
      <trkpt lat="50.471574040129781" lon="7.564669037237763">
        <ele>329.244551</ele>
        <time>2026-04-06T10:36:58Z</time>
      </trkpt>
      <trkpt lat="50.470796031877398" lon="7.564483964815736">
        <ele>326.55997300000001</ele>
        <time>2026-04-06T10:37:39Z</time>
      </trkpt>
      <trkpt lat="50.47050098888576" lon="7.564454963430762">
        <ele>325.84242499999999</ele>
        <time>2026-04-06T10:37:45Z</time>
      </trkpt>
      <trkpt lat="50.470150960609317" lon="7.564404001459479">
        <ele>324.98461500000002</ele>
        <time>2026-04-06T10:37:52Z</time>
      </trkpt>
      <trkpt lat="50.469623990356922" lon="7.564213983714581">
        <ele>323.67119600000001</ele>
        <time>2026-04-06T10:38:06Z</time>
      </trkpt>
      <trkpt lat="50.469545032829046" lon="7.564166961237788">
        <ele>323.47740199999998</ele>
        <time>2026-04-06T10:38:08Z</time>
      </trkpt>
      <trkpt lat="50.469241021201015" lon="7.564021032303572">
        <ele>322.84303</ele>
        <time>2026-04-06T10:38:17Z</time>
      </trkpt>
      <trkpt lat="50.469080004841089" lon="7.56408398039639">
        <ele>322.51151199999998</ele>
        <time>2026-04-06T10:38:22Z</time>
      </trkpt>
      <trkpt lat="50.468851011246443" lon="7.564224964007735">
        <ele>322.02155099999999</ele>
        <time>2026-04-06T10:38:28Z</time>
      </trkpt>
      <trkpt lat="50.468147015199065" lon="7.564541967585683">
        <ele>320.54825199999999</ele>
        <time>2026-04-06T10:38:44Z</time>
      </trkpt>
      <trkpt lat="50.467392979189754" lon="7.564912028610706">
        <ele>318.091903</ele>
        <time>2026-04-06T10:39:06Z</time>
      </trkpt>
      <trkpt lat="50.46723498031497" lon="7.565246969461441">
        <ele>317.14268399999997</ele>
        <time>2026-04-06T10:39:11Z</time>
      </trkpt>
      <trkpt lat="50.466986959800124" lon="7.565734041854739">
        <ele>315.72409499999998</ele>
        <time>2026-04-06T10:39:17Z</time>
      </trkpt>
      <trkpt lat="50.466801971197128" lon="7.566035035997629">
        <ele>314.772425</ele>
        <time>2026-04-06T10:39:22Z</time>
      </trkpt>
      <trkpt lat="50.466641038656235" lon="7.566366037353873">
        <ele>313.78868699999998</ele>
        <time>2026-04-06T10:39:56Z</time>
      </trkpt>
      <trkpt lat="50.466639026999474" lon="7.566366959363222">
        <ele>313.78118699999999</ele>
        <time>2026-04-06T10:40:02Z</time>
      </trkpt>
      <trkpt lat="50.466598039492965" lon="7.566410964354873">
        <ele>313.60245600000002</ele>
        <time>2026-04-06T10:40:06Z</time>
      </trkpt>
      <trkpt lat="50.466408021748066" lon="7.566582038998604">
        <ele>312.66278999999997</ele>
        <time>2026-04-06T10:40:18Z</time>
      </trkpt>
      <trkpt lat="50.46665302477777" lon="7.567044971510768">
        <ele>310.55738500000001</ele>
        <time>2026-04-06T10:40:46Z</time>
      </trkpt>
      <trkpt lat="50.466622011736035" lon="7.567605972290039">
        <ele>309.16895799999998</ele>
        <time>2026-04-06T10:40:57Z</time>
      </trkpt>
      <trkpt lat="50.46650399453938" lon="7.567833038046956">
        <ele>308.44436400000001</ele>
        <time>2026-04-06T10:41:02Z</time>
      </trkpt>
      <trkpt lat="50.46628799289465" lon="7.568107964470983">
        <ele>307.37543899999997</ele>
        <time>2026-04-06T10:41:09Z</time>
      </trkpt>
      <trkpt lat="50.465360032394528" lon="7.568883039057255">
        <ele>305.751554</ele>
        <time>2026-04-06T10:41:50Z</time>
      </trkpt>
      <trkpt lat="50.464265020564198" lon="7.569407997652888">
        <ele>304.00187399999999</ele>
        <time>2026-04-06T10:42:23Z</time>
      </trkpt>
      <trkpt lat="50.463374024257064" lon="7.569255027920008">
        <ele>300.64613900000001</ele>
        <time>2026-04-06T10:42:51Z</time>
      </trkpt>
      <trkpt lat="50.463257012888789" lon="7.569211022928357">
        <ele>300.200065</ele>
        <time>2026-04-06T10:42:54Z</time>
      </trkpt>
      <trkpt lat="50.463100019842386" lon="7.56917498074472">
        <ele>299.61098099999998</ele>
        <time>2026-04-06T10:42:58Z</time>
      </trkpt>
      <trkpt lat="50.462759966030717" lon="7.569075990468264">
        <ele>298.32592099999999</ele>
        <time>2026-04-06T10:43:09Z</time>
      </trkpt>
      <trkpt lat="50.462252022698522" lon="7.569334991276264">
        <ele>296.11984100000001</ele>
        <time>2026-04-06T10:43:44Z</time>
      </trkpt>
      <trkpt lat="50.461780037730932" lon="7.569584017619491">
        <ele>294.04882400000002</ele>
        <time>2026-04-06T10:43:55Z</time>
      </trkpt>
      <trkpt lat="50.461466973647475" lon="7.569746039807797">
        <ele>292.67815899999999</ele>
        <time>2026-04-06T10:44:02Z</time>
      </trkpt>
      <trkpt lat="50.460457960143685" lon="7.57024803198874">
        <ele>291.33759700000002</ele>
        <time>2026-04-06T10:44:38Z</time>
      </trkpt>
      <trkpt lat="50.458899009972811" lon="7.571035008877516">
        <ele>294.30997500000001</ele>
        <time>2026-04-06T10:45:31Z</time>
      </trkpt>
      <trkpt lat="50.458012036979198" lon="7.571542030200362">
        <ele>297.74611599999997</ele>
        <time>2026-04-06T10:46:04Z</time>
      </trkpt>
      <trkpt lat="50.45782595872879" lon="7.571596009656787">
        <ele>298.43560500000001</ele>
        <time>2026-04-06T10:46:11Z</time>
      </trkpt>
      <trkpt lat="50.457357997074723" lon="7.571761971339583">
        <ele>298.78608800000001</ele>
        <time>2026-04-06T10:46:26Z</time>
      </trkpt>
      <trkpt lat="50.456767994910479" lon="7.571911001577973">
        <ele>297.42912000000001</ele>
        <time>2026-04-06T10:46:57Z</time>
      </trkpt>
      <trkpt lat="50.456761037930846" lon="7.571908989921212">
        <ele>297.413004</ele>
        <time>2026-04-06T10:49:19Z</time>
      </trkpt>
      <trkpt lat="50.456493990495801" lon="7.57186003960669">
        <ele>296.79674899999998</ele>
        <time>2026-04-06T10:49:32Z</time>
      </trkpt>
      <trkpt lat="50.45561003498733" lon="7.571765994653106">
        <ele>293.05406399999998</ele>
        <time>2026-04-06T10:49:56Z</time>
      </trkpt>
      <trkpt lat="50.455248020589352" lon="7.571585029363632">
        <ele>289.01438899999999</ele>
        <time>2026-04-06T10:50:07Z</time>
      </trkpt>
      <trkpt lat="50.454926993697882" lon="7.571399034932256">
        <ele>285.37571500000001</ele>
        <time>2026-04-06T10:50:16Z</time>
      </trkpt>
      <trkpt lat="50.454578977078199" lon="7.571180015802383">
        <ele>281.38991600000003</ele>
        <time>2026-04-06T10:50:25Z</time>
      </trkpt>
      <trkpt lat="50.454281000420451" lon="7.571098040789366">
        <ele>278.14908400000002</ele>
        <time>2026-04-06T10:50:35Z</time>
      </trkpt>
      <trkpt lat="50.454160971567035" lon="7.571079013869166">
        <ele>276.86491699999999</ele>
        <time>2026-04-06T10:50:40Z</time>
      </trkpt>
      <trkpt lat="50.454142028465867" lon="7.571100974455476">
        <ele>276.61400600000002</ele>
        <time>2026-04-06T10:50:42Z</time>
      </trkpt>
      <trkpt lat="50.454133981838822" lon="7.571111032739282">
        <ele>276.504977</ele>
        <time>2026-04-06T10:52:03Z</time>
      </trkpt>
      <trkpt lat="50.45408402569592" lon="7.571056969463825">
        <ele>275.73283199999997</ele>
        <time>2026-04-06T10:53:38Z</time>
      </trkpt>
      <trkpt lat="50.454058963805437" lon="7.57104498334229">
        <ele>275.34151900000001</ele>
        <time>2026-04-06T10:53:40Z</time>
      </trkpt>
      <trkpt lat="50.453860983252525" lon="7.570939958095551">
        <ele>272.21011900000002</ele>
        <time>2026-04-06T10:53:53Z</time>
      </trkpt>
      <trkpt lat="50.453643975779414" lon="7.570831999182701">
        <ele>268.789558</ele>
        <time>2026-04-06T10:54:06Z</time>
      </trkpt>
      <trkpt lat="50.453520007431507" lon="7.570767961442471">
        <ele>266.81874800000003</ele>
        <time>2026-04-06T10:54:15Z</time>
      </trkpt>
      <trkpt lat="50.453320015221834" lon="7.570724040269852">
        <ele>263.78498100000002</ele>
        <time>2026-04-06T10:54:31Z</time>
      </trkpt>
      <trkpt lat="50.453307023271918" lon="7.570729991421104">
        <ele>263.582155</ele>
        <time>2026-04-06T10:54:32Z</time>
      </trkpt>
      <trkpt lat="50.453099990263581" lon="7.570719011127949">
        <ele>260.46802300000002</ele>
        <time>2026-04-06T10:54:47Z</time>
      </trkpt>
      <trkpt lat="50.452928999438882" lon="7.570765027776361">
        <ele>257.84685000000002</ele>
        <time>2026-04-06T10:55:50Z</time>
      </trkpt>
      <trkpt lat="50.452729007229209" lon="7.570848008617759">
        <ele>254.69406599999999</ele>
        <time>2026-04-06T10:56:04Z</time>
      </trkpt>
      <trkpt lat="50.452650971710682" lon="7.570871980860829">
        <ele>253.47424899999999</ele>
        <time>2026-04-06T10:56:10Z</time>
      </trkpt>
      <trkpt lat="50.4524099919945" lon="7.570974994450808">
        <ele>249.706885</ele>
        <time>2026-04-06T10:56:30Z</time>
      </trkpt>
      <trkpt lat="50.452228020876646" lon="7.57100198417902">
        <ele>247.09253100000001</ele>
        <time>2026-04-06T10:56:43Z</time>
      </trkpt>
      <trkpt lat="50.45204303227365" lon="7.570834010839462">
        <ele>244.06644800000001</ele>
        <time>2026-04-06T10:56:54Z</time>
      </trkpt>
      <trkpt lat="50.452028028666973" lon="7.570810960605741">
        <ele>243.77158299999999</ele>
        <time>2026-04-06T10:56:55Z</time>
      </trkpt>
      <trkpt lat="50.452001038938761" lon="7.570733008906245">
        <ele>242.976461</ele>
        <time>2026-04-06T10:57:00Z</time>
      </trkpt>
      <trkpt lat="50.451954016461968" lon="7.570706019178033">
        <ele>242.25851900000001</ele>
        <time>2026-04-06T10:57:04Z</time>
      </trkpt>
      <trkpt lat="50.451927026733756" lon="7.570724040269852">
        <ele>241.845947</ele>
        <time>2026-04-06T10:57:07Z</time>
      </trkpt>
      <trkpt lat="50.451809009537101" lon="7.570877010002732">
        <ele>239.63702699999999</ele>
        <time>2026-04-06T10:57:20Z</time>
      </trkpt>
      <trkpt lat="50.45174203813076" lon="7.570928977802396">
        <ele>238.58548999999999</ele>
        <time>2026-04-06T10:57:26Z</time>
      </trkpt>
      <trkpt lat="50.451642964035273" lon="7.570973988622427">
        <ele>237.12608800000001</ele>
        <time>2026-04-06T10:57:34Z</time>
      </trkpt>
      <trkpt lat="50.451410030946136" lon="7.571048000827432">
        <ele>233.70187300000001</ele>
        <time>2026-04-06T10:58:10Z</time>
      </trkpt>
      <trkpt lat="50.451379017904401" lon="7.571058981120586">
        <ele>233.21515099999999</ele>
        <time>2026-04-06T10:58:23Z</time>
      </trkpt>
      <trkpt lat="50.451225964352489" lon="7.571098040789366">
        <ele>231.02400399999999</ele>
        <time>2026-04-06T10:58:34Z</time>
      </trkpt>
      <trkpt lat="50.450994959101081" lon="7.571179009974003">
        <ele>227.67944199999999</ele>
        <time>2026-04-06T10:58:48Z</time>
      </trkpt>
      <trkpt lat="50.450921030715108" lon="7.571189990267158">
        <ele>226.63393099999999</ele>
        <time>2026-04-06T10:58:52Z</time>
      </trkpt>
      <trkpt lat="50.450853975489736" lon="7.571192001923919">
        <ele>225.684585</ele>
        <time>2026-04-06T10:58:55Z</time>
      </trkpt>
      <trkpt lat="50.450740987434983" lon="7.571251010522246">
        <ele>224.005449</ele>
        <time>2026-04-06T10:59:03Z</time>
      </trkpt>
      <trkpt lat="50.450313007459044" lon="7.571559967473149">
        <ele>220.89450199999999</ele>
        <time>2026-04-06T10:59:34Z</time>
      </trkpt>
      <trkpt lat="50.44981000944972" lon="7.571728024631739">
        <ele>217.58176</ele>
        <time>2026-04-06T11:00:15Z</time>
      </trkpt>
      <trkpt lat="50.449686041101813" lon="7.57177404128015">
        <ele>216.77542700000001</ele>
        <time>2026-04-06T11:00:20Z</time>
      </trkpt>
      <trkpt lat="50.449364008381963" lon="7.571858027949929">
        <ele>214.705915</ele>
        <time>2026-04-06T11:01:04Z</time>
      </trkpt>
      <trkpt lat="50.448871990665793" lon="7.57196900434792">
        <ele>211.61265</ele>
        <time>2026-04-06T11:01:20Z</time>
      </trkpt>
      <trkpt lat="50.448825974017382" lon="7.571987025439739">
        <ele>211.329531</ele>
        <time>2026-04-06T11:01:22Z</time>
      </trkpt>
      <trkpt lat="50.448551969602704" lon="7.57196799851954">
        <ele>209.68298799999999</ele>
        <time>2026-04-06T11:01:32Z</time>
      </trkpt>
      <trkpt lat="50.447999015450478" lon="7.571815028786659">
        <ele>206.32730000000001</ele>
        <time>2026-04-06T11:01:49Z</time>
      </trkpt>
      <trkpt lat="50.447691986337304" lon="7.571733975782991">
        <ele>204.46515299999999</ele>
        <time>2026-04-06T11:02:04Z</time>
      </trkpt>
      <trkpt lat="50.447356039658189" lon="7.57158100605011">
        <ele>202.34674999999999</ele>
        <time>2026-04-06T11:02:17Z</time>
      </trkpt>
      <trkpt lat="50.447089998051524" lon="7.571626016870141">
        <ele>199.01989399999999</ele>
        <time>2026-04-06T11:02:28Z</time>
      </trkpt>
      <trkpt lat="50.446915989741683" lon="7.571759959682822">
        <ele>195.96785399999999</ele>
        <time>2026-04-06T11:02:36Z</time>
      </trkpt>
      <trkpt lat="50.446825968101621" lon="7.571817962452769">
        <ele>194.43021899999999</ele>
        <time>2026-04-06T11:02:41Z</time>
      </trkpt>
      <trkpt lat="50.446668975055218" lon="7.571980990469456">
        <ele>191.41102699999999</ele>
        <time>2026-04-06T11:03:14Z</time>
      </trkpt>
      <trkpt lat="50.446639973670244" lon="7.571992976590991">
        <ele>190.93256</ele>
        <time>2026-04-06T11:03:19Z</time>
      </trkpt>
      <trkpt lat="50.446570990607142" lon="7.571978978812695">
        <ele>189.83545599999999</ele>
        <time>2026-04-06T11:03:25Z</time>
      </trkpt>
      <trkpt lat="50.446559004485607" lon="7.571975039318204">
        <ele>189.64234400000001</ele>
        <time>2026-04-06T11:03:26Z</time>
      </trkpt>
      <trkpt lat="50.446430006995797" lon="7.571923993527889">
        <ele>187.540009</ele>
        <time>2026-04-06T11:03:39Z</time>
      </trkpt>
      <trkpt lat="50.446226997300982" lon="7.571889963001013">
        <ele>184.291394</ele>
        <time>2026-04-06T11:04:19Z</time>
      </trkpt>
      <trkpt lat="50.44622297398746" lon="7.571889963001013">
        <ele>184.22842600000001</ele>
        <time>2026-04-06T11:04:20Z</time>
      </trkpt>
      <trkpt lat="50.446118032559752" lon="7.57185903377831">
        <ele>182.54634999999999</ele>
        <time>2026-04-06T11:04:28Z</time>
      </trkpt>
      <trkpt lat="50.445912005379796" lon="7.57186196744442">
        <ele>179.28367399999999</ele>
        <time>2026-04-06T11:04:41Z</time>
      </trkpt>
      <trkpt lat="50.445888033136725" lon="7.57186196744442">
        <ele>178.905867</ele>
        <time>2026-04-06T11:04:44Z</time>
      </trkpt>
      <trkpt lat="50.445717964321375" lon="7.571912007406354">
        <ele>176.116319</ele>
        <time>2026-04-06T11:05:01Z</time>
      </trkpt>
      <trkpt lat="50.445661973208189" lon="7.571943020448089">
        <ele>175.176311</ele>
        <time>2026-04-06T11:05:06Z</time>
      </trkpt>
      <trkpt lat="50.445606987923384" lon="7.571971016004682">
        <ele>174.259839</ele>
        <time>2026-04-06T11:05:12Z</time>
      </trkpt>
      <trkpt lat="50.445532975718379" lon="7.572102025151253">
        <ele>172.81381200000001</ele>
        <time>2026-04-06T11:05:20Z</time>
      </trkpt>
      <trkpt lat="50.445280009880662" lon="7.572338981553912">
        <ele>169.64697200000001</ele>
        <time>2026-04-06T11:05:43Z</time>
      </trkpt>
      <trkpt lat="50.445056967437267" lon="7.57231299765408">
        <ele>167.273492</ele>
        <time>2026-04-06T11:05:59Z</time>
      </trkpt>
      <trkpt lat="50.444729989394546" lon="7.572266981005669">
        <ele>163.78970000000001</ele>
        <time>2026-04-06T11:06:18Z</time>
      </trkpt>
      <trkpt lat="50.444510970264673" lon="7.572114011272788">
        <ele>161.24421799999999</ele>
        <time>2026-04-06T11:06:32Z</time>
      </trkpt>
      <trkpt lat="50.44450300745666" lon="7.572014015167952">
        <ele>160.55376699999999</ele>
        <time>2026-04-06T11:06:41Z</time>
      </trkpt>
      <trkpt lat="50.444412985816598" lon="7.571878982707858">
        <ele>159.20104799999999</ele>
        <time>2026-04-06T11:07:07Z</time>
      </trkpt>
      <trkpt lat="50.444341991096735" lon="7.571771023795009">
        <ele>158.15509</ele>
        <time>2026-04-06T11:07:14Z</time>
      </trkpt>
      <trkpt lat="50.443973019719124" lon="7.571944026276469">
        <ele>154.54264599999999</ele>
        <time>2026-04-06T11:07:33Z</time>
      </trkpt>
      <trkpt lat="50.443628020584583" lon="7.572348034009337">
        <ele>155.097106</ele>
        <time>2026-04-06T11:07:51Z</time>
      </trkpt>
      <trkpt lat="50.443588960915804" lon="7.572373012080789">
        <ele>155.14840799999999</ele>
        <time>2026-04-06T11:07:53Z</time>
      </trkpt>
      <trkpt lat="50.443575968965888" lon="7.572381980717182">
        <ele>155.16570999999999</ele>
        <time>2026-04-06T11:07:54Z</time>
      </trkpt>
      <trkpt lat="50.443503968417645" lon="7.57252698764205">
        <ele>155.31375</ele>
        <time>2026-04-06T11:08:27Z</time>
      </trkpt>
      <trkpt lat="50.443413024768233" lon="7.572680041193962">
        <ele>155.47791000000001</ele>
        <time>2026-04-06T11:08:36Z</time>
      </trkpt>
      <trkpt lat="50.443372959271073" lon="7.572740977630019">
        <ele>155.545817</ele>
        <time>2026-04-06T11:08:39Z</time>
      </trkpt>
      <trkpt lat="50.443188976496458" lon="7.57293401286006">
        <ele>155.834825</ele>
        <time>2026-04-06T11:08:55Z</time>
      </trkpt>
      <trkpt lat="50.443194005638361" lon="7.572953961789608">
        <ele>155.85148899999999</ele>
        <time>2026-04-06T11:08:56Z</time>
      </trkpt>
      <trkpt lat="50.443103983998299" lon="7.573024034500122">
        <ele>155.985883</ele>
        <time>2026-04-06T11:09:02Z</time>
      </trkpt>
      <trkpt lat="50.442755967378616" lon="7.573594003915787">
        <ele>156.61386899999999</ele>
        <time>2026-04-06T11:09:44Z</time>
      </trkpt>
      <trkpt lat="50.442728977650404" lon="7.573615964502096">
        <ele>156.650915</ele>
        <time>2026-04-06T11:09:48Z</time>
      </trkpt>
      <trkpt lat="50.442647002637386" lon="7.573682013899088">
        <ele>156.35900100000001</ele>
        <time>2026-04-06T11:09:54Z</time>
      </trkpt>
      <trkpt lat="50.44222698546946" lon="7.574131032451987">
        <ele>154.12049999999999</ele>
        <time>2026-04-06T11:10:31Z</time>
      </trkpt>
      <trkpt lat="50.441979970782995" lon="7.574720028787851">
        <ele>152.15281200000001</ele>
        <time>2026-04-06T11:11:02Z</time>
      </trkpt>
      <trkpt lat="50.441858014091849" lon="7.575073996558785">
        <ele>151.00227100000001</ele>
        <time>2026-04-06T11:11:49Z</time>
      </trkpt>
      <trkpt lat="50.441819038242102" lon="7.57501901127398">
        <ele>150.770601</ele>
        <time>2026-04-06T11:12:03Z</time>
      </trkpt>
      <trkpt lat="50.441793976351619" lon="7.574996966868639">
        <ele>150.64161300000001</ele>
        <time>2026-04-06T11:12:06Z</time>
      </trkpt>
      <trkpt lat="50.44177302159369" lon="7.575048012658954">
        <ele>150.472407</ele>
        <time>2026-04-06T11:12:10Z</time>
      </trkpt>
      <trkpt lat="50.441690962761641" lon="7.575602978467941">
        <ele>148.88049799999999</ele>
        <time>2026-04-06T11:12:40Z</time>
      </trkpt>
      <trkpt lat="50.441694986075163" lon="7.575863990932703">
        <ele>145.523301</ele>
        <time>2026-04-06T11:13:17Z</time>
      </trkpt>
      <trkpt lat="50.441716024652123" lon="7.576024001464248">
        <ele>143.439517</ele>
        <time>2026-04-06T11:13:26Z</time>
      </trkpt>
      <trkpt lat="50.441720969974995" lon="7.576074041426182">
        <ele>142.797213</ele>
        <time>2026-04-06T11:13:29Z</time>
      </trkpt>
      <trkpt lat="50.441710995510221" lon="7.576228016987443">
        <ele>140.826933</ele>
        <time>2026-04-06T11:13:36Z</time>
      </trkpt>
      <trkpt lat="50.441712001338601" lon="7.576283002272248">
        <ele>140.12524500000001</ele>
        <time>2026-04-06T11:13:39Z</time>
      </trkpt>
      <trkpt lat="50.441718036308885" lon="7.576528005301952">
        <ele>137.01256000000001</ele>
        <time>2026-04-06T11:13:51Z</time>
      </trkpt>
      <trkpt lat="50.441736979410052" lon="7.576647028326988">
        <ele>135.45322200000001</ele>
        <time>2026-04-06T11:13:57Z</time>
      </trkpt>
      <trkpt lat="50.441747037693858" lon="7.576663959771395">
        <ele>135.159537</ele>
        <time>2026-04-06T11:13:58Z</time>
      </trkpt>
      <trkpt lat="50.441781990230083" lon="7.576758004724979">
        <ele>133.77698699999999</ele>
        <time>2026-04-06T11:14:04Z</time>
      </trkpt>
      <trkpt lat="50.441815014928579" lon="7.576889013871551">
        <ele>131.96237199999999</ele>
        <time>2026-04-06T11:15:03Z</time>
      </trkpt>
      <trkpt lat="50.441864971071482" lon="7.577023040503264">
        <ele>129.97325599999999</ele>
        <time>2026-04-06T11:17:09Z</time>
      </trkpt>
      <trkpt lat="50.441876035183668" lon="7.577055981382728">
        <ele>129.500573</ele>
        <time>2026-04-06T11:17:11Z</time>
      </trkpt>
      <trkpt lat="50.441874023526907" lon="7.577143991366029">
        <ele>128.19982999999999</ele>
        <time>2026-04-06T11:17:57Z</time>
      </trkpt>
      <trkpt lat="50.44179598800838" lon="7.577091017737985">
        <ele>126.40381499999999</ele>
        <time>2026-04-06T11:18:31Z</time>
      </trkpt>
      <trkpt lat="50.441710995510221" lon="7.577133011072874">
        <ele>123.252132</ele>
        <time>2026-04-06T11:19:16Z</time>
      </trkpt>
      <trkpt lat="50.441713007166982" lon="7.577288998290896">
        <ele>121.05158299999999</ele>
        <time>2026-04-06T11:19:35Z</time>
      </trkpt>
      <trkpt lat="50.441720969974995" lon="7.577356975525618">
        <ele>120.172348</ele>
        <time>2026-04-06T11:19:38Z</time>
      </trkpt>
      <trkpt lat="50.441720969974995" lon="7.577616982161999">
        <ele>116.826207</ele>
        <time>2026-04-06T11:19:57Z</time>
      </trkpt>
      <trkpt lat="50.441733039915562" lon="7.577774981036782">
        <ele>114.731776</ele>
        <time>2026-04-06T11:20:05Z</time>
      </trkpt>
      <trkpt lat="50.441708983853459" lon="7.577942032366991">
        <ele>112.61344699999999</ele>
        <time>2026-04-06T11:20:18Z</time>
      </trkpt>
      <trkpt lat="50.441664978861809" lon="7.577952006831765">
        <ele>111.794877</ele>
        <time>2026-04-06T11:20:23Z</time>
      </trkpt>
      <trkpt lat="50.441586021333933" lon="7.577830972149968">
        <ele>109.942109</ele>
        <time>2026-04-06T11:20:35Z</time>
      </trkpt>
      <trkpt lat="50.441570011898875" lon="7.577730976045132">
        <ele>108.859729</ele>
        <time>2026-04-06T11:20:42Z</time>
      </trkpt>
      <trkpt lat="50.441568000242114" lon="7.577726030722261">
        <ele>108.798219</ele>
        <time>2026-04-06T11:20:43Z</time>
      </trkpt>
      <trkpt lat="50.441461969166994" lon="7.577541964128614">
        <ele>106.200861</ele>
        <time>2026-04-06T11:20:59Z</time>
      </trkpt>
      <trkpt lat="50.44140899553895" lon="7.577429981902242">
        <ele>104.733751</ele>
        <time>2026-04-06T11:21:07Z</time>
      </trkpt>
      <trkpt lat="50.441394997760653" lon="7.577405003830791">
        <ele>104.379335</ele>
        <time>2026-04-06T11:21:13Z</time>
      </trkpt>
      <trkpt lat="50.441374965012074" lon="7.57742403075099">
        <ele>103.913417</ele>
        <time>2026-04-06T11:21:18Z</time>
      </trkpt>
      <trkpt lat="50.441390974447131" lon="7.577554034069181">
        <ele>102.51375</ele>
        <time>2026-04-06T11:21:27Z</time>
      </trkpt>
      <trkpt lat="50.441374965012074" lon="7.577654030174017">
        <ele>101.43336499999999</ele>
        <time>2026-04-06T11:21:33Z</time>
      </trkpt>
      <trkpt lat="50.441326014697552" lon="7.577719995751977">
        <ele>100.368582</ele>
        <time>2026-04-06T11:21:38Z</time>
      </trkpt>
      <trkpt lat="50.441314028576016" lon="7.577744973823428">
        <ele>99.448125000000005</ele>
        <time>2026-04-06T11:21:49Z</time>
      </trkpt>
      <trkpt lat="50.441172039136291" lon="7.577828038483858">
        <ele>96.516551000000007</ele>
        <time>2026-04-06T11:22:24Z</time>
      </trkpt>
      <trkpt lat="50.441132979467511" lon="7.577913030982018">
        <ele>95.425163999999995</ele>
        <time>2026-04-06T11:22:35Z</time>
      </trkpt>
      <trkpt lat="50.441110013052821" lon="7.577918982133269">
        <ele>95.043779000000001</ele>
        <time>2026-04-06T11:22:48Z</time>
      </trkpt>
      <trkpt lat="50.440986966714263" lon="7.578013027086854">
        <ele>92.768546999999998</ele>
        <time>2026-04-06T11:22:59Z</time>
      </trkpt>
      <trkpt lat="50.4409159719944" lon="7.578054014593363">
        <ele>91.529799999999994</ele>
        <time>2026-04-06T11:23:05Z</time>
      </trkpt>
      <trkpt lat="50.440686978399754" lon="7.578148981556296">
        <ele>87.646986999999996</ele>
        <time>2026-04-06T11:23:23Z</time>
      </trkpt>
      <trkpt lat="50.440631993114948" lon="7.57819902151823">
        <ele>86.607398000000003</ele>
        <time>2026-04-06T11:23:31Z</time>
      </trkpt>
      <trkpt lat="50.440600980073214" lon="7.578140012919903">
        <ele>85.791331</ele>
        <time>2026-04-06T11:23:42Z</time>
      </trkpt>
      <trkpt lat="50.440556975081563" lon="7.577926022931933">
        <ele>83.609269999999995</ele>
        <time>2026-04-06T11:23:48Z</time>
      </trkpt>
      <trkpt lat="50.440510958433151" lon="7.577701974660158">
        <ele>83.639493999999999</ele>
        <time>2026-04-06T11:23:53Z</time>
      </trkpt>
      <trkpt lat="50.440351031720638" lon="7.577098980545998">
        <ele>83.723755999999995</ele>
        <time>2026-04-06T11:24:12Z</time>
      </trkpt>
      <trkpt lat="50.440030004829168" lon="7.577182967215776">
        <ele>83.790617999999995</ele>
        <time>2026-04-06T11:24:26Z</time>
      </trkpt>
      <trkpt lat="50.439748959615827" lon="7.577288998290896">
        <ele>83.849525999999997</ele>
        <time>2026-04-06T11:25:01Z</time>
      </trkpt>
      <trkpt lat="50.439442014321685" lon="7.577350018545985">
        <ele>83.913402000000005</ele>
        <time>2026-04-06T11:25:35Z</time>
      </trkpt>
      <trkpt lat="50.43913003988564" lon="7.576947016641498">
        <ele>83.871708999999996</ele>
        <time>2026-04-06T11:25:56Z</time>
      </trkpt>
      <trkpt lat="50.438782023265958" lon="7.576660020276904">
        <ele>83.586517000000001</ele>
        <time>2026-04-06T11:26:03Z</time>
      </trkpt>
      <trkpt lat="50.438499972224236" lon="7.576509984210134">
        <ele>83.371307000000002</ele>
        <time>2026-04-06T11:26:09Z</time>
      </trkpt>
      <trkpt lat="50.438313977792859" lon="7.576731014996767">
        <ele>83.194130999999999</ele>
        <time>2026-04-06T11:26:38Z</time>
      </trkpt>
      <trkpt lat="50.438283970579505" lon="7.576764961704612">
        <ele>83.166454000000002</ele>
        <time>2026-04-06T11:26:52Z</time>
      </trkpt>
      <trkpt lat="50.438252035528421" lon="7.576846014708281">
        <ele>83.122574999999998</ele>
        <time>2026-04-06T11:26:57Z</time>
      </trkpt>
      <trkpt lat="50.4382289852947" lon="7.576922038570046">
        <ele>83.065271999999993</ele>
        <time>2026-04-06T11:27:54Z</time>
      </trkpt>
      <trkpt lat="50.438291011378169" lon="7.577249016612768">
        <ele>82.906948999999997</ele>
        <time>2026-04-06T11:28:11Z</time>
      </trkpt>
      <trkpt lat="50.438353959470987" lon="7.577568031847477">
        <ele>82.752369000000002</ele>
        <time>2026-04-06T11:28:29Z</time>
      </trkpt>
      <trkpt lat="50.438393019139767" lon="7.577636009082198">
        <ele>82.699068999999994</ele>
        <time>2026-04-06T11:29:11Z</time>
      </trkpt>
      <trkpt lat="50.438383966684341" lon="7.577784033492208">
        <ele>82.946973</ele>
        <time>2026-04-06T11:29:26Z</time>
      </trkpt>
      <trkpt lat="50.438296962529421" lon="7.57834997959435">
        <ele>84.816528000000005</ele>
        <time>2026-04-06T11:29:48Z</time>
      </trkpt>
      <trkpt lat="50.438288999721408" lon="7.578368000686169">
        <ele>84.885087999999996</ele>
        <time>2026-04-06T11:29:49Z</time>
      </trkpt>
      <trkpt lat="50.438273996114731" lon="7.578739989548922">
        <ele>86.064845000000005</ele>
        <time>2026-04-06T11:30:03Z</time>
      </trkpt>
      <trkpt lat="50.438204007223248" lon="7.5797029864043">
        <ele>89.114874999999998</ele>
        <time>2026-04-06T11:30:39Z</time>
      </trkpt>
      <trkpt lat="50.438407016918063" lon="7.581105027347803">
        <ele>91.627960999999999</ele>
        <time>2026-04-06T11:31:16Z</time>
      </trkpt>
      <trkpt lat="50.438705999404192" lon="7.582921972498298">
        <ele>92.000527000000005</ele>
        <time>2026-04-06T11:32:02Z</time>
      </trkpt>
      <trkpt lat="50.438891993835568" lon="7.585115013644099">
        <ele>90.865590999999995</ele>
        <time>2026-04-06T11:32:49Z</time>
      </trkpt>
      <trkpt lat="50.438942033797503" lon="7.585636032745242">
        <ele>90.544247999999996</ele>
        <time>2026-04-06T11:33:02Z</time>
      </trkpt>
      <trkpt lat="50.43883097358048" lon="7.585781961679459">
        <ele>90.402089000000004</ele>
        <time>2026-04-06T11:33:36Z</time>
      </trkpt>
      <trkpt lat="50.438880007714033" lon="7.585727982223034">
        <ele>90.381930999999994</ele>
        <time>2026-04-06T11:33:59Z</time>
      </trkpt>
      <trkpt lat="50.438900962471962" lon="7.585648018866777">
        <ele>93.066287000000003</ele>
        <time>2026-04-06T11:35:22Z</time>
      </trkpt>
      <trkpt lat="50.438770959153771" lon="7.585905008018017">
        <ele>93.988596999999999</ele>
        <time>2026-04-06T11:35:46Z</time>
      </trkpt>
      <trkpt lat="50.439219977706671" lon="7.586566004902124">
        <ele>96.685402999999994</ele>
        <time>2026-04-06T11:36:14Z</time>
      </trkpt>
      <trkpt lat="50.439225006848574" lon="7.586776977404952">
        <ele>97.252725999999996</ele>
        <time>2026-04-06T11:36:19Z</time>
      </trkpt>
      <trkpt lat="50.439228024333715" lon="7.587305959314108">
        <ele>98.673783999999998</ele>
        <time>2026-04-06T11:36:32Z</time>
      </trkpt>
      <trkpt lat="50.43906700797379" lon="7.587410984560847">
        <ele>99.516676000000004</ele>
        <time>2026-04-06T11:36:44Z</time>
      </trkpt>
      <trkpt lat="50.438754027709365" lon="7.587429005652666">
        <ele>102.077071</ele>
        <time>2026-04-06T11:37:06Z</time>
      </trkpt>
      <trkpt lat="50.438574990257621" lon="7.587660010904074">
        <ele>105.25677</ele>
        <time>2026-04-06T11:37:40Z</time>
      </trkpt>
      <trkpt lat="50.438397964462638" lon="7.587881963700056">
        <ele>108.337425</ele>
        <time>2026-04-06T11:38:05Z</time>
      </trkpt>
      <trkpt lat="50.438334010541439" lon="7.587896967306733">
        <ele>109.218287</ele>
        <time>2026-04-06T11:38:35Z</time>
      </trkpt>
      <trkpt lat="50.438129995018244" lon="7.587690018117428">
        <ele>112.593592</ele>
        <time>2026-04-06T11:39:02Z</time>
      </trkpt>
      <trkpt lat="50.438059000298381" lon="7.587599996477366">
        <ele>113.81533899999999</ele>
        <time>2026-04-06T11:39:08Z</time>
      </trkpt>
      <trkpt lat="50.438055982813239" lon="7.587579041719437">
        <ele>113.998833</ele>
        <time>2026-04-06T11:39:09Z</time>
      </trkpt>
      <trkpt lat="50.438038967549801" lon="7.587546017020941">
        <ele>114.362554</ele>
        <time>2026-04-06T11:39:11Z</time>
      </trkpt>
      <trkpt lat="50.437911981716752" lon="7.587412996217609">
        <ele>116.45904899999999</ele>
        <time>2026-04-06T11:39:23Z</time>
      </trkpt>
      <trkpt lat="50.437696985900402" lon="7.587347030639648">
        <ele>119.43075899999999</ele>
        <time>2026-04-06T11:40:13Z</time>
      </trkpt>
      <trkpt lat="50.437566982582211" lon="7.587210992351174">
        <ele>121.53774300000001</ele>
        <time>2026-04-06T11:40:31Z</time>
      </trkpt>
      <trkpt lat="50.437457012012601" lon="7.587003959342837">
        <ele>123.839494</ele>
        <time>2026-04-06T11:40:45Z</time>
      </trkpt>
      <trkpt lat="50.437400015071034" lon="7.586901029571891">
        <ele>124.93281399999999</ele>
        <time>2026-04-06T11:40:53Z</time>
      </trkpt>
      <trkpt lat="50.43724101036787" lon="7.587004965171218">
        <ele>127.44139699999999</ele>
        <time>2026-04-06T11:41:19Z</time>
      </trkpt>
      <trkpt lat="50.437214020639658" lon="7.587092975154519">
        <ele>128.180699</ele>
        <time>2026-04-06T11:41:26Z</time>
      </trkpt>
      <trkpt lat="50.437302030622959" lon="7.587478961795569">
        <ele>131.30665300000001</ele>
        <time>2026-04-06T11:41:52Z</time>
      </trkpt>
      <trkpt lat="50.437415018677711" lon="7.587837036699057">
        <ele>134.30991900000001</ele>
        <time>2026-04-06T11:42:19Z</time>
      </trkpt>
      <trkpt lat="50.437527000904083" lon="7.5882319919765">
        <ele>137.57270500000001</ele>
        <time>2026-04-06T11:42:50Z</time>
      </trkpt>
      <trkpt lat="50.437649041414261" lon="7.588598029688001">
        <ele>140.68647200000001</ele>
        <time>2026-04-06T11:43:18Z</time>
      </trkpt>
      <trkpt lat="50.437725987285376" lon="7.588950991630554">
        <ele>143.52484699999999</ele>
        <time>2026-04-06T11:43:39Z</time>
      </trkpt>
      <trkpt lat="50.437976019456983" lon="7.589136986061931">
        <ele>146.55306899999999</ele>
        <time>2026-04-06T11:43:56Z</time>
      </trkpt>
      <trkpt lat="50.437989011406898" lon="7.589140003547072">
        <ele>146.66652199999999</ele>
        <time>2026-04-06T11:43:57Z</time>
      </trkpt>
      <trkpt lat="50.438297968357801" lon="7.589396992698312">
        <ele>149.72107199999999</ele>
        <time>2026-04-06T11:44:19Z</time>
      </trkpt>
      <trkpt lat="50.438306014984846" lon="7.589415013790131">
        <ele>149.84177800000001</ele>
        <time>2026-04-06T11:44:20Z</time>
      </trkpt>
      <trkpt lat="50.438384972512722" lon="7.589804017916322">
        <ele>152.14323099999999</ele>
        <time>2026-04-06T11:45:05Z</time>
      </trkpt>
      <trkpt lat="50.438268966972828" lon="7.590239038690925">
        <ele>154.77516800000001</ele>
        <time>2026-04-06T11:45:25Z</time>
      </trkpt>
      <trkpt lat="50.438241977244616" lon="7.590512037277222">
        <ele>156.31076999999999</ele>
        <time>2026-04-06T11:46:29Z</time>
      </trkpt>
      <trkpt lat="50.438184980303049" lon="7.590537015348673">
        <ele>156.847532</ele>
        <time>2026-04-06T12:03:02Z</time>
      </trkpt>
      <trkpt lat="50.438022958114743" lon="7.590745976194739">
        <ele>158.66122899999999</ele>
        <time>2026-04-06T12:03:15Z</time>
      </trkpt>
      <trkpt lat="50.437936037778854" lon="7.590872040018439">
        <ele>159.68331900000001</ele>
        <time>2026-04-06T12:03:23Z</time>
      </trkpt>
      <trkpt lat="50.437723975628614" lon="7.591317035257816">
        <ele>162.76132999999999</ele>
        <time>2026-04-06T12:03:47Z</time>
      </trkpt>
      <trkpt lat="50.437486013397574" lon="7.591748032718897">
        <ele>165.94062299999999</ele>
        <time>2026-04-06T12:04:14Z</time>
      </trkpt>
      <trkpt lat="50.437404960393906" lon="7.591901002451778">
        <ele>167.04416499999999</ele>
        <time>2026-04-06T12:04:22Z</time>
      </trkpt>
      <trkpt lat="50.437270011752844" lon="7.592309033498168">
        <ele>169.601609</ele>
        <time>2026-04-06T12:04:42Z</time>
      </trkpt>
      <trkpt lat="50.437273029237986" lon="7.592664007097483">
        <ele>171.57809</ele>
        <time>2026-04-06T12:04:56Z</time>
      </trkpt>
      <trkpt lat="50.437317034229636" lon="7.593011017888784">
        <ele>173.547066</ele>
        <time>2026-04-06T12:05:10Z</time>
      </trkpt>
      <trkpt lat="50.43752197176218" lon="7.593185026198626">
        <ele>175.62448000000001</ele>
        <time>2026-04-06T12:05:26Z</time>
      </trkpt>
      <trkpt lat="50.437697991728783" lon="7.59349700063467">
        <ele>177.98696899999999</ele>
        <time>2026-04-06T12:05:43Z</time>
      </trkpt>
      <trkpt lat="50.437727998942137" lon="7.594112986698747">
        <ele>181.111538</ele>
        <time>2026-04-06T12:06:09Z</time>
      </trkpt>
      <trkpt lat="50.437658010050654" lon="7.594497967511416">
        <ele>183.14259300000001</ele>
        <time>2026-04-06T12:06:51Z</time>
      </trkpt>
      <trkpt lat="50.43765096925199" lon="7.594530992209911">
        <ele>183.317497</ele>
        <time>2026-04-06T12:07:49Z</time>
      </trkpt>
      <trkpt lat="50.43745500035584" lon="7.595037007704377">
        <ele>186.34507400000001</ele>
        <time>2026-04-06T12:08:14Z</time>
      </trkpt>
      <trkpt lat="50.437398003414273" lon="7.595169022679329">
        <ele>187.15068400000001</ele>
        <time>2026-04-06T12:08:20Z</time>
      </trkpt>
      <trkpt lat="50.437374031171203" lon="7.595252003520727">
        <ele>187.6148</ele>
        <time>2026-04-06T12:08:24Z</time>
      </trkpt>
      <trkpt lat="50.437382999807596" lon="7.595388041809201">
        <ele>188.30245600000001</ele>
        <time>2026-04-06T12:08:30Z</time>
      </trkpt>
      <trkpt lat="50.43734603561461" lon="7.595922974869609">
        <ele>191.022719</ele>
        <time>2026-04-06T12:08:49Z</time>
      </trkpt>
      <trkpt lat="50.437350980937481" lon="7.596126990392804">
        <ele>191.90498600000001</ele>
        <time>2026-04-06T12:08:57Z</time>
      </trkpt>
      <trkpt lat="50.437361039221287" lon="7.596300998702645">
        <ele>192.72100900000001</ele>
        <time>2026-04-06T12:09:06Z</time>
      </trkpt>
      <trkpt lat="50.437770998105407" lon="7.59665597230196">
        <ele>195.97245100000001</ele>
        <time>2026-04-06T12:09:37Z</time>
      </trkpt>
      <trkpt lat="50.437907036393881" lon="7.596839033067226">
        <ele>197.19251600000001</ele>
        <time>2026-04-06T12:09:47Z</time>
      </trkpt>
      <trkpt lat="50.438138963654637" lon="7.597430963069201">
        <ele>200.20169999999999</ele>
        <time>2026-04-06T12:10:15Z</time>
      </trkpt>
      <trkpt lat="50.438277013599873" lon="7.598240990191698">
        <ele>203.28004899999999</ele>
        <time>2026-04-06T12:10:44Z</time>
      </trkpt>
      <trkpt lat="50.438475999981165" lon="7.599046994000673">
        <ele>204.177977</ele>
        <time>2026-04-06T12:11:15Z</time>
      </trkpt>
      <trkpt lat="50.438612038269639" lon="7.599158976227045">
        <ele>204.43138300000001</ele>
        <time>2026-04-06T12:11:45Z</time>
      </trkpt>
      <trkpt lat="50.438941027969122" lon="7.598913973197341">
        <ele>205.00656799999999</ele>
        <time>2026-04-06T12:12:03Z</time>
      </trkpt>
      <trkpt lat="50.438984027132392" lon="7.598868040367961">
        <ele>205.08813000000001</ele>
        <time>2026-04-06T12:12:05Z</time>
      </trkpt>
      <trkpt lat="50.439547039568424" lon="7.598840966820717">
        <ele>205.904011</ele>
        <time>2026-04-06T12:12:26Z</time>
      </trkpt>
      <trkpt lat="50.439593978226185" lon="7.598851025104523">
        <ele>205.866005</ele>
        <time>2026-04-06T12:12:28Z</time>
      </trkpt>
      <trkpt lat="50.439758012071252" lon="7.598633011803031">
        <ele>205.68318199999999</ele>
        <time>2026-04-06T12:12:56Z</time>
      </trkpt>
      <trkpt lat="50.440034028142691" lon="7.597715025767684">
        <ele>205.163578</ele>
        <time>2026-04-06T12:13:23Z</time>
      </trkpt>
      <trkpt lat="50.440245000645518" lon="7.597424006089568">
        <ele>204.93462099999999</ele>
        <time>2026-04-06T12:13:58Z</time>
      </trkpt>
      <trkpt lat="50.440363017842174" lon="7.597450995817781">
        <ele>204.83745099999999</ele>
        <time>2026-04-06T12:14:38Z</time>
      </trkpt>
      <trkpt lat="50.440639033913612" lon="7.597364997491241">
        <ele>204.606965</ele>
        <time>2026-04-06T12:14:51Z</time>
      </trkpt>
      <trkpt lat="50.441043963655829" lon="7.596968030557036">
        <ele>206.37483900000001</ele>
        <time>2026-04-06T12:15:09Z</time>
      </trkpt>
      <trkpt lat="50.441575041040778" lon="7.596425972878933">
        <ele>210.006057</ele>
        <time>2026-04-06T12:15:35Z</time>
      </trkpt>
      <trkpt lat="50.441844016313553" lon="7.596275014802814">
        <ele>211.63399899999999</ele>
        <time>2026-04-06T12:15:49Z</time>
      </trkpt>
      <trkpt lat="50.441949963569641" lon="7.596210977062583">
        <ele>212.30112099999999</ele>
        <time>2026-04-06T12:16:35Z</time>
      </trkpt>
      <trkpt lat="50.442061023786664" lon="7.596241990104318">
        <ele>212.97871499999999</ele>
        <time>2026-04-06T12:17:33Z</time>
      </trkpt>
      <trkpt lat="50.442021964117885" lon="7.596537033095956">
        <ele>214.33144200000001</ele>
        <time>2026-04-06T12:18:24Z</time>
      </trkpt>
      <trkpt lat="50.44218398630619" lon="7.596564022824168">
        <ele>216.464134</ele>
        <time>2026-04-06T12:19:06Z</time>
      </trkpt>
      <trkpt lat="50.441997991874814" lon="7.596813971176744">
        <ele>219.672347</ele>
        <time>2026-04-06T12:19:41Z</time>
      </trkpt>
      <trkpt lat="50.442185997962952" lon="7.596803996711969">
        <ele>222.75875400000001</ele>
        <time>2026-04-06T12:20:34Z</time>
      </trkpt>
      <trkpt lat="50.442234026268125" lon="7.596802990883589">
        <ele>223.370023</ele>
        <time>2026-04-06T12:20:39Z</time>
      </trkpt>
      <trkpt lat="50.442263027653098" lon="7.596831992268562">
        <ele>224.81545600000001</ele>
        <time>2026-04-06T12:20:53Z</time>
      </trkpt>
      <trkpt lat="50.442164037376642" lon="7.596949003636837">
        <ele>226.434057</ele>
        <time>2026-04-06T12:21:06Z</time>
      </trkpt>
      <trkpt lat="50.442062029615045" lon="7.597131980583072">
        <ele>228.43068600000001</ele>
        <time>2026-04-06T12:21:21Z</time>
      </trkpt>
      <trkpt lat="50.442002015188336" lon="7.597251003608108">
        <ele>229.70079000000001</ele>
        <time>2026-04-06T12:21:31Z</time>
      </trkpt>
      <trkpt lat="50.442119026556611" lon="7.597219990566373">
        <ele>231.30690000000001</ele>
        <time>2026-04-06T12:22:07Z</time>
      </trkpt>
      <trkpt lat="50.442266967147589" lon="7.597233988344669">
        <ele>233.35035099999999</ele>
        <time>2026-04-06T12:22:26Z</time>
      </trkpt>
      <trkpt lat="50.442296974360943" lon="7.597306994721293">
        <ele>234.05523600000001</ele>
        <time>2026-04-06T12:22:31Z</time>
      </trkpt>
      <trkpt lat="50.442342991009355" lon="7.597458958625794">
        <ele>235.44975299999999</ele>
        <time>2026-04-06T12:22:41Z</time>
      </trkpt>
      <trkpt lat="50.442363023757935" lon="7.597616035491228">
        <ele>236.75514699999999</ele>
        <time>2026-04-06T12:23:11Z</time>
      </trkpt>
      <trkpt lat="50.442303009331226" lon="7.597860032692552">
        <ele>239.04206300000001</ele>
        <time>2026-04-06T12:23:35Z</time>
      </trkpt>
      <trkpt lat="50.442188009619713" lon="7.597903031855822">
        <ele>240.62360799999999</ele>
        <time>2026-04-06T12:24:21Z</time>
      </trkpt>
      <trkpt lat="50.442164959385991" lon="7.597927004098892">
        <ele>240.98492899999999</ele>
        <time>2026-04-06T12:24:47Z</time>
      </trkpt>
      <trkpt lat="50.442113997414708" lon="7.598154991865158">
        <ele>243.34325000000001</ele>
        <time>2026-04-06T12:25:04Z</time>
      </trkpt>
      <trkpt lat="50.442113997414708" lon="7.598371999338269">
        <ele>245.17070000000001</ele>
        <time>2026-04-06T12:25:18Z</time>
      </trkpt>
      <trkpt lat="50.442093964666128" lon="7.598408963531256">
        <ele>245.59886499999999</ele>
        <time>2026-04-06T12:26:19Z</time>
      </trkpt>
      <trkpt lat="50.442064041271806" lon="7.598420027643442">
        <ele>246.002025</ele>
        <time>2026-04-06T12:27:00Z</time>
      </trkpt>
      <trkpt lat="50.441954992711544" lon="7.598461015149951">
        <ele>248.44195099999999</ele>
        <time>2026-04-06T12:27:32Z</time>
      </trkpt>
      <trkpt lat="50.442045014351606" lon="7.598613984882832">
        <ele>250.44261499999999</ele>
        <time>2026-04-06T12:27:55Z</time>
      </trkpt>
      <trkpt lat="50.442044008523226" lon="7.598781958222389">
        <ele>251.88539900000001</ele>
        <time>2026-04-06T12:28:11Z</time>
      </trkpt>
      <trkpt lat="50.442090025171638" lon="7.599135003983975">
        <ele>254.91450599999999</ele>
        <time>2026-04-06T12:28:38Z</time>
      </trkpt>
      <trkpt lat="50.442103017121553" lon="7.599342036992312">
        <ele>256.69777199999999</ele>
        <time>2026-04-06T12:28:54Z</time>
      </trkpt>
      <trkpt lat="50.442107962444425" lon="7.599492995068431">
        <ele>258.00708300000002</ele>
        <time>2026-04-06T12:29:03Z</time>
      </trkpt>
      <trkpt lat="50.442149033769965" lon="7.599592991173267">
        <ele>258.99918000000002</ele>
        <time>2026-04-06T12:29:11Z</time>
      </trkpt>
      <trkpt lat="50.442241989076138" lon="7.599933966994286">
        <ele>261.81141000000002</ele>
        <time>2026-04-06T12:29:34Z</time>
      </trkpt>
      <trkpt lat="50.442353971302509" lon="7.60045699775219">
        <ele>265.04356300000001</ele>
        <time>2026-04-06T12:30:07Z</time>
      </trkpt>
      <trkpt lat="50.442408034577966" lon="7.600560011342168">
        <ele>265.81914399999999</ele>
        <time>2026-04-06T12:30:15Z</time>
      </trkpt>
      <trkpt lat="50.442602997645736" lon="7.601006012409926">
        <ele>268.97821900000002</ele>
        <time>2026-04-06T12:30:45Z</time>
      </trkpt>
      <trkpt lat="50.442619007080793" lon="7.601458970457315">
        <ele>271.64072099999998</ele>
        <time>2026-04-06T12:31:08Z</time>
      </trkpt>
      <trkpt lat="50.442692013457417" lon="7.602129019796848">
        <ele>275.58684599999998</ele>
        <time>2026-04-06T12:31:28Z</time>
      </trkpt>
      <trkpt lat="50.442684972658753" lon="7.602160032838583">
        <ele>275.77746200000001</ele>
        <time>2026-04-06T12:31:29Z</time>
      </trkpt>
      <trkpt lat="50.44252697378397" lon="7.602410987019539">
        <ele>277.66367600000001</ele>
        <time>2026-04-06T12:31:39Z</time>
      </trkpt>
      <trkpt lat="50.44250400736928" lon="7.60247795842588">
        <ele>277.84486399999997</ele>
        <time>2026-04-06T12:31:43Z</time>
      </trkpt>
      <trkpt lat="50.442491015419364" lon="7.602696977555752">
        <ele>278.37641500000001</ele>
        <time>2026-04-06T12:31:51Z</time>
      </trkpt>
      <trkpt lat="50.442408034577966" lon="7.604169007390738">
        <ele>281.92078900000001</ele>
        <time>2026-04-06T12:32:28Z</time>
      </trkpt>
      <trkpt lat="50.442322958260775" lon="7.60499102063477">
        <ele>283.90468299999998</ele>
        <time>2026-04-06T12:33:03Z</time>
      </trkpt>
      <trkpt lat="50.442322036251426" lon="7.605008035898209">
        <ele>283.945133</ele>
        <time>2026-04-06T12:33:09Z</time>
      </trkpt>
      <trkpt lat="50.442338967695832" lon="7.605451019480825">
        <ele>285.132184</ele>
        <time>2026-04-06T12:33:20Z</time>
      </trkpt>
      <trkpt lat="50.442347014322877" lon="7.606607973575592">
        <ele>288.330397</ele>
        <time>2026-04-06T12:33:44Z</time>
      </trkpt>
      <trkpt lat="50.442327987402678" lon="7.606835039332509">
        <ele>288.96455400000002</ele>
        <time>2026-04-06T12:33:49Z</time>
      </trkpt>
      <trkpt lat="50.441886009648442" lon="7.607279028743506">
        <ele>291.381484</ele>
        <time>2026-04-06T12:34:14Z</time>
      </trkpt>
      <trkpt lat="50.441770004108548" lon="7.607819996774197">
        <ele>292.34356700000001</ele>
        <time>2026-04-06T12:34:32Z</time>
      </trkpt>
      <trkpt lat="50.441622985526919" lon="7.608935963362455">
        <ele>293.44959699999998</ele>
        <time>2026-04-06T12:35:05Z</time>
      </trkpt>
      <trkpt lat="50.441658021882176" lon="7.609136961400509">
        <ele>293.649001</ele>
        <time>2026-04-06T12:35:11Z</time>
      </trkpt>
      <trkpt lat="50.441750977188349" lon="7.6105120126158">
        <ele>294.30946499999999</ele>
        <time>2026-04-06T12:35:35Z</time>
      </trkpt>
      <trkpt lat="50.441756006330252" lon="7.610810995101929">
        <ele>293.91251199999999</ele>
        <time>2026-04-06T12:35:44Z</time>
      </trkpt>
      <trkpt lat="50.441708983853459" lon="7.612214041873813">
        <ele>292.02319999999997</ele>
        <time>2026-04-06T12:36:18Z</time>
      </trkpt>
      <trkpt lat="50.441185031086206" lon="7.612803960219026">
        <ele>290.02656100000002</ele>
        <time>2026-04-06T12:36:33Z</time>
      </trkpt>
      <trkpt lat="50.441140020266175" lon="7.612818041816354">
        <ele>289.76427100000001</ele>
        <time>2026-04-06T12:36:34Z</time>
      </trkpt>
      <trkpt lat="50.441012028604746" lon="7.612893981859088">
        <ele>288.98124300000001</ele>
        <time>2026-04-06T12:36:37Z</time>
      </trkpt>
      <trkpt lat="50.440387995913625" lon="7.61313202790916">
        <ele>285.20246300000002</ele>
        <time>2026-04-06T12:36:53Z</time>
      </trkpt>
      <trkpt lat="50.439853984862566" lon="7.613085005432367">
        <ele>282.13364200000001</ele>
        <time>2026-04-06T12:37:05Z</time>
      </trkpt>
      <trkpt lat="50.439826995134354" lon="7.613082993775606">
        <ele>281.97909700000002</ele>
        <time>2026-04-06T12:37:06Z</time>
      </trkpt>
      <trkpt lat="50.439721969887614" lon="7.613102020695806">
        <ele>281.37359900000001</ele>
        <time>2026-04-06T12:37:10Z</time>
      </trkpt>
      <trkpt lat="50.439576962962747" lon="7.61341399513185">
        <ele>280.96321799999998</ele>
        <time>2026-04-06T12:37:17Z</time>
      </trkpt>
      <trkpt lat="50.43930203653872" lon="7.614189991727471">
        <ele>281.74828100000002</ele>
        <time>2026-04-06T12:37:34Z</time>
      </trkpt>
      <trkpt lat="50.439142026007175" lon="7.614489980041981">
        <ele>282.09221000000002</ele>
        <time>2026-04-06T12:37:40Z</time>
      </trkpt>
      <trkpt lat="50.438416991382837" lon="7.615955974906683">
        <ele>284.47991999999999</ele>
        <time>2026-04-06T12:38:17Z</time>
      </trkpt>
      <trkpt lat="50.438269972801208" lon="7.616212964057922">
        <ele>285.25080000000003</ele>
        <time>2026-04-06T12:38:24Z</time>
      </trkpt>
      <trkpt lat="50.437721963971853" lon="7.617362039163709">
        <ele>288.45522</ele>
        <time>2026-04-06T12:38:55Z</time>
      </trkpt>
      <trkpt lat="50.437332037836313" lon="7.618679003790021">
        <ele>288.96410900000001</ele>
        <time>2026-04-06T12:39:28Z</time>
      </trkpt>
      <trkpt lat="50.437149982899427" lon="7.619361961260438">
        <ele>288.54107399999998</ele>
        <time>2026-04-06T12:39:36Z</time>
      </trkpt>
      <trkpt lat="50.43708804063499" lon="7.621745020151138">
        <ele>286.67260599999997</ele>
        <time>2026-04-06T12:39:59Z</time>
      </trkpt>
      <trkpt lat="50.437075970694423" lon="7.622598968446255">
        <ele>285.84995199999997</ele>
        <time>2026-04-06T12:40:09Z</time>
      </trkpt>
      <trkpt lat="50.437087034806609" lon="7.622794015333056">
        <ele>285.66161799999998</ele>
        <time>2026-04-06T12:40:12Z</time>
      </trkpt>
      <trkpt lat="50.43706800788641" lon="7.623585015535355">
        <ele>284.88662099999999</ele>
        <time>2026-04-06T12:40:25Z</time>
      </trkpt>
      <trkpt lat="50.437051998451352" lon="7.624049037694931">
        <ele>284.41982100000001</ele>
        <time>2026-04-06T12:40:30Z</time>
      </trkpt>
      <trkpt lat="50.437056021764874" lon="7.624230002984405">
        <ele>284.23873099999997</ele>
        <time>2026-04-06T12:40:32Z</time>
      </trkpt>
      <trkpt lat="50.437008999288082" lon="7.625286960974336">
        <ele>283.177977</ele>
        <time>2026-04-06T12:40:42Z</time>
      </trkpt>
      <trkpt lat="50.436977986246347" lon="7.627113964408636">
        <ele>283.70100200000002</ele>
        <time>2026-04-06T12:41:10Z</time>
      </trkpt>
      <trkpt lat="50.436993995681405" lon="7.627772027626634">
        <ele>284.55277999999998</ele>
        <time>2026-04-06T12:41:56Z</time>
      </trkpt>
      <trkpt lat="50.437031965702772" lon="7.629430973902345">
        <ele>287.05359800000002</ele>
        <time>2026-04-06T12:42:37Z</time>
      </trkpt>
      <trkpt lat="50.437053004279733" lon="7.631024038419128">
        <ele>290.17582399999998</ele>
        <time>2026-04-06T12:43:13Z</time>
      </trkpt>
      <trkpt lat="50.437293983995914" lon="7.63255700469017">
        <ele>293.37661300000002</ele>
        <time>2026-04-06T12:43:51Z</time>
      </trkpt>
      <trkpt lat="50.437640994787216" lon="7.633927026763558">
        <ele>296.384208</ele>
        <time>2026-04-06T12:44:28Z</time>
      </trkpt>
      <trkpt lat="50.437547033652663" lon="7.635571975260973">
        <ele>297.28511800000001</ele>
        <time>2026-04-06T12:45:14Z</time>
      </trkpt>
      <trkpt lat="50.437439996749163" lon="7.637001005932689">
        <ele>297.28511800000001</ele>
        <time>2026-04-06T12:45:50Z</time>
      </trkpt>
      <trkpt lat="50.437416024506092" lon="7.637654040008783">
        <ele>297.28511800000001</ele>
        <time>2026-04-06T12:46:09Z</time>
      </trkpt>
      <trkpt lat="50.437438990920782" lon="7.637613974511623">
        <ele>297.28511800000001</ele>
        <time>2026-04-06T12:46:43Z</time>
      </trkpt>
      <trkpt lat="50.437428010627627" lon="7.637609029188752">
        <ele>297.28511800000001</ele>
        <time>2026-04-06T13:07:34Z</time>
      </trkpt>
    </trkseg>
  </trk>

</gpx>